<?xml version="1.0" encoding="UTF-8" standalone="no" ?>
<gpx xmlns="http://www.topografix.com/GPX/1/1" xmlns:xsi="http://www.w3.org/2001/XMLSchema-instance" xsi:schemaLocation="http://www.topografix.com/GPX/1/1 http://www.topografix.com/GPX/1/1/gpx.xsd" version="1.1" creator="VisuGPX - https://www.visugpx.com">
  <metadata>
    <name>RSPFY-Etang de la Tour</name>
    <desc><![CDATA[Marche nordique entre l'Etang de la Tour et les Hauts Besnières.]]></desc>
  </metadata>
  <trk>
    <name><![CDATA[2025-05-13 09:01]]></name>
    <desc><![CDATA[<p>Heure de départ: 09:01 13 mai 2025<br/>Heure d'arrivée: 11:40 13 mai 2025<br/>Distance: 12,8 km (02:39)<br/>Temps déplacement: 02:26<br/>Vitesse moyenne: 4,8 km/h<br/>Vitesse moyenne mouv.: 5,25 km/h<br/>Vitesse Max.: 8,67 km/h<br/>Altitude minimale: 151 m<br/>Altitude maximale: 184 m<br/>Vitesse de montée: 111,6 m/h<br/>Vitesse de descente: -139,9 m/h<br/>Gain d'altitude: 155 m<br/>Perte d'altitude: -159 m<br/>Temps de montée: 01:23<br/>Temps de descente: 01:08<br/></p><hr align="center" width="480" style="height: 2px; width: 517px"/>]]></desc>
    <trkseg>
      <trkpt lat="48.65488" lon="1.88514">
        <ele>169.3</ele>
        <time>2025-05-13T07:01:09Z</time>
      </trkpt>
      <trkpt lat="48.65478" lon="1.8851">
        <ele>169.1</ele>
        <time>2025-05-13T07:01:54Z</time>
      </trkpt>
      <trkpt lat="48.6547" lon="1.88505">
        <ele>169</ele>
        <time>2025-05-13T07:02:36Z</time>
      </trkpt>
      <trkpt lat="48.65465" lon="1.88493">
        <ele>168.7</ele>
        <time>2025-05-13T07:02:44Z</time>
      </trkpt>
      <trkpt lat="48.65456" lon="1.88491">
        <ele>168.7</ele>
        <time>2025-05-13T07:02:51Z</time>
      </trkpt>
      <trkpt lat="48.65449" lon="1.8848">
        <ele>168.3</ele>
        <time>2025-05-13T07:03:00Z</time>
      </trkpt>
      <trkpt lat="48.65442" lon="1.88472">
        <ele>167.8</ele>
        <time>2025-05-13T07:03:08Z</time>
      </trkpt>
      <trkpt lat="48.65436" lon="1.88461">
        <ele>167.2</ele>
        <time>2025-05-13T07:03:16Z</time>
      </trkpt>
      <trkpt lat="48.65427" lon="1.88456">
        <ele>166.9</ele>
        <time>2025-05-13T07:03:25Z</time>
      </trkpt>
      <trkpt lat="48.65424" lon="1.88443">
        <ele>167</ele>
        <time>2025-05-13T07:03:32Z</time>
      </trkpt>
      <trkpt lat="48.65425" lon="1.88429">
        <ele>167</ele>
        <time>2025-05-13T07:03:38Z</time>
      </trkpt>
      <trkpt lat="48.65426" lon="1.88414">
        <ele>167</ele>
        <time>2025-05-13T07:03:45Z</time>
      </trkpt>
      <trkpt lat="48.65426" lon="1.88399">
        <ele>167</ele>
        <time>2025-05-13T07:03:52Z</time>
      </trkpt>
      <trkpt lat="48.65425" lon="1.88385">
        <ele>167</ele>
        <time>2025-05-13T07:03:58Z</time>
      </trkpt>
      <trkpt lat="48.65426" lon="1.88371">
        <ele>167</ele>
        <time>2025-05-13T07:04:06Z</time>
      </trkpt>
      <trkpt lat="48.65426" lon="1.88356">
        <ele>167</ele>
        <time>2025-05-13T07:04:13Z</time>
      </trkpt>
      <trkpt lat="48.65426" lon="1.8834">
        <ele>167</ele>
        <time>2025-05-13T07:04:20Z</time>
      </trkpt>
      <trkpt lat="48.65426" lon="1.88327">
        <ele>167</ele>
        <time>2025-05-13T07:04:26Z</time>
      </trkpt>
      <trkpt lat="48.65426" lon="1.88312">
        <ele>167</ele>
        <time>2025-05-13T07:04:32Z</time>
      </trkpt>
      <trkpt lat="48.65426" lon="1.88298">
        <ele>167</ele>
        <time>2025-05-13T07:04:38Z</time>
      </trkpt>
      <trkpt lat="48.65426" lon="1.88284">
        <ele>167</ele>
        <time>2025-05-13T07:04:44Z</time>
      </trkpt>
      <trkpt lat="48.65426" lon="1.88269">
        <ele>167</ele>
        <time>2025-05-13T07:04:51Z</time>
      </trkpt>
      <trkpt lat="48.65427" lon="1.88254">
        <ele>167</ele>
        <time>2025-05-13T07:04:58Z</time>
      </trkpt>
      <trkpt lat="48.65427" lon="1.88239">
        <ele>167.2</ele>
        <time>2025-05-13T07:05:05Z</time>
      </trkpt>
      <trkpt lat="48.65432" lon="1.88225">
        <ele>167.5</ele>
        <time>2025-05-13T07:05:12Z</time>
      </trkpt>
      <trkpt lat="48.65439" lon="1.88217">
        <ele>167.9</ele>
        <time>2025-05-13T07:05:18Z</time>
      </trkpt>
      <trkpt lat="48.65446" lon="1.88208">
        <ele>168</ele>
        <time>2025-05-13T07:05:24Z</time>
      </trkpt>
      <trkpt lat="48.65452" lon="1.88197">
        <ele>168</ele>
        <time>2025-05-13T07:05:30Z</time>
      </trkpt>
      <trkpt lat="48.65459" lon="1.88185">
        <ele>168</ele>
        <time>2025-05-13T07:05:37Z</time>
      </trkpt>
      <trkpt lat="48.65465" lon="1.88174">
        <ele>168</ele>
        <time>2025-05-13T07:05:44Z</time>
      </trkpt>
      <trkpt lat="48.65473" lon="1.88166">
        <ele>168</ele>
        <time>2025-05-13T07:05:51Z</time>
      </trkpt>
      <trkpt lat="48.65479" lon="1.88154">
        <ele>168</ele>
        <time>2025-05-13T07:05:58Z</time>
      </trkpt>
      <trkpt lat="48.65486" lon="1.88143">
        <ele>168</ele>
        <time>2025-05-13T07:06:05Z</time>
      </trkpt>
      <trkpt lat="48.65493" lon="1.88133">
        <ele>168</ele>
        <time>2025-05-13T07:06:13Z</time>
      </trkpt>
      <trkpt lat="48.65497" lon="1.88119">
        <ele>168</ele>
        <time>2025-05-13T07:06:20Z</time>
      </trkpt>
      <trkpt lat="48.6549" lon="1.88129">
        <ele>168</ele>
        <time>2025-05-13T07:06:49Z</time>
      </trkpt>
      <trkpt lat="48.65483" lon="1.88138">
        <ele>168</ele>
        <time>2025-05-13T07:06:55Z</time>
      </trkpt>
      <trkpt lat="48.65475" lon="1.88145">
        <ele>168</ele>
        <time>2025-05-13T07:07:02Z</time>
      </trkpt>
      <trkpt lat="48.65469" lon="1.88158">
        <ele>168</ele>
        <time>2025-05-13T07:07:10Z</time>
      </trkpt>
      <trkpt lat="48.65477" lon="1.88168">
        <ele>168</ele>
        <time>2025-05-13T07:07:15Z</time>
      </trkpt>
      <trkpt lat="48.65486" lon="1.88173">
        <ele>168</ele>
        <time>2025-05-13T07:07:22Z</time>
      </trkpt>
      <trkpt lat="48.65494" lon="1.88169">
        <ele>168</ele>
        <time>2025-05-13T07:07:28Z</time>
      </trkpt>
      <trkpt lat="48.65504" lon="1.88166">
        <ele>168</ele>
        <time>2025-05-13T07:07:35Z</time>
      </trkpt>
      <trkpt lat="48.65514" lon="1.88167">
        <ele>168</ele>
        <time>2025-05-13T07:07:43Z</time>
      </trkpt>
      <trkpt lat="48.65524" lon="1.8817">
        <ele>168</ele>
        <time>2025-05-13T07:07:51Z</time>
      </trkpt>
      <trkpt lat="48.65531" lon="1.88177">
        <ele>168</ele>
        <time>2025-05-13T07:07:58Z</time>
      </trkpt>
      <trkpt lat="48.65542" lon="1.88174">
        <ele>168</ele>
        <time>2025-05-13T07:08:05Z</time>
      </trkpt>
      <trkpt lat="48.65551" lon="1.88179">
        <ele>168</ele>
        <time>2025-05-13T07:08:13Z</time>
      </trkpt>
      <trkpt lat="48.65561" lon="1.88183">
        <ele>168</ele>
        <time>2025-05-13T07:08:20Z</time>
      </trkpt>
      <trkpt lat="48.6557" lon="1.88182">
        <ele>168</ele>
        <time>2025-05-13T07:08:26Z</time>
      </trkpt>
      <trkpt lat="48.6558" lon="1.88179">
        <ele>168</ele>
        <time>2025-05-13T07:08:32Z</time>
      </trkpt>
      <trkpt lat="48.65589" lon="1.88175">
        <ele>167.8</ele>
        <time>2025-05-13T07:08:38Z</time>
      </trkpt>
      <trkpt lat="48.65598" lon="1.88169">
        <ele>167.5</ele>
        <time>2025-05-13T07:08:44Z</time>
      </trkpt>
      <trkpt lat="48.65607" lon="1.88164">
        <ele>167.1</ele>
        <time>2025-05-13T07:08:51Z</time>
      </trkpt>
      <trkpt lat="48.65615" lon="1.88155">
        <ele>167</ele>
        <time>2025-05-13T07:08:57Z</time>
      </trkpt>
      <trkpt lat="48.65622" lon="1.88145">
        <ele>167</ele>
        <time>2025-05-13T07:09:04Z</time>
      </trkpt>
      <trkpt lat="48.65631" lon="1.88143">
        <ele>167</ele>
        <time>2025-05-13T07:09:13Z</time>
      </trkpt>
      <trkpt lat="48.65635" lon="1.88155">
        <ele>167</ele>
        <time>2025-05-13T07:09:21Z</time>
      </trkpt>
      <trkpt lat="48.65643" lon="1.88165">
        <ele>167.1</ele>
        <time>2025-05-13T07:09:28Z</time>
      </trkpt>
      <trkpt lat="48.65649" lon="1.88176">
        <ele>167.2</ele>
        <time>2025-05-13T07:09:35Z</time>
      </trkpt>
      <trkpt lat="48.65658" lon="1.8818">
        <ele>167.4</ele>
        <time>2025-05-13T07:09:41Z</time>
      </trkpt>
      <trkpt lat="48.65664" lon="1.88191">
        <ele>167.1</ele>
        <time>2025-05-13T07:09:48Z</time>
      </trkpt>
      <trkpt lat="48.6567" lon="1.88201">
        <ele>167.1</ele>
        <time>2025-05-13T07:09:55Z</time>
      </trkpt>
      <trkpt lat="48.65675" lon="1.88213">
        <ele>167.3</ele>
        <time>2025-05-13T07:10:02Z</time>
      </trkpt>
      <trkpt lat="48.65681" lon="1.88224">
        <ele>167.5</ele>
        <time>2025-05-13T07:10:08Z</time>
      </trkpt>
      <trkpt lat="48.65686" lon="1.88236">
        <ele>167.7</ele>
        <time>2025-05-13T07:10:14Z</time>
      </trkpt>
      <trkpt lat="48.65692" lon="1.88247">
        <ele>167.9</ele>
        <time>2025-05-13T07:10:21Z</time>
      </trkpt>
      <trkpt lat="48.65702" lon="1.88247">
        <ele>167.7</ele>
        <time>2025-05-13T07:10:26Z</time>
      </trkpt>
      <trkpt lat="48.65711" lon="1.8824">
        <ele>167.4</ele>
        <time>2025-05-13T07:10:32Z</time>
      </trkpt>
      <trkpt lat="48.65717" lon="1.88229">
        <ele>167.2</ele>
        <time>2025-05-13T07:10:38Z</time>
      </trkpt>
      <trkpt lat="48.65724" lon="1.88218">
        <ele>167.1</ele>
        <time>2025-05-13T07:10:45Z</time>
      </trkpt>
      <trkpt lat="48.65732" lon="1.88214">
        <ele>167.2</ele>
        <time>2025-05-13T07:10:52Z</time>
      </trkpt>
      <trkpt lat="48.65739" lon="1.88204">
        <ele>167.2</ele>
        <time>2025-05-13T07:10:58Z</time>
      </trkpt>
      <trkpt lat="48.65746" lon="1.88194">
        <ele>167.2</ele>
        <time>2025-05-13T07:11:04Z</time>
      </trkpt>
      <trkpt lat="48.65755" lon="1.8819">
        <ele>167.1</ele>
        <time>2025-05-13T07:11:11Z</time>
      </trkpt>
      <trkpt lat="48.65763" lon="1.88181">
        <ele>167.3</ele>
        <time>2025-05-13T07:11:18Z</time>
      </trkpt>
      <trkpt lat="48.65771" lon="1.88173">
        <ele>167.2</ele>
        <time>2025-05-13T07:11:26Z</time>
      </trkpt>
      <trkpt lat="48.65773" lon="1.88159">
        <ele>167.4</ele>
        <time>2025-05-13T07:11:32Z</time>
      </trkpt>
      <trkpt lat="48.6578" lon="1.8815">
        <ele>167.5</ele>
        <time>2025-05-13T07:11:39Z</time>
      </trkpt>
      <trkpt lat="48.6579" lon="1.88148">
        <ele>167.4</ele>
        <time>2025-05-13T07:11:47Z</time>
      </trkpt>
      <trkpt lat="48.65797" lon="1.88136">
        <ele>167.4</ele>
        <time>2025-05-13T07:11:54Z</time>
      </trkpt>
      <trkpt lat="48.65801" lon="1.88122">
        <ele>167.8</ele>
        <time>2025-05-13T07:12:01Z</time>
      </trkpt>
      <trkpt lat="48.65802" lon="1.88107">
        <ele>168.2</ele>
        <time>2025-05-13T07:12:08Z</time>
      </trkpt>
      <trkpt lat="48.65806" lon="1.88093">
        <ele>168.6</ele>
        <time>2025-05-13T07:12:15Z</time>
      </trkpt>
      <trkpt lat="48.65815" lon="1.88093">
        <ele>168.1</ele>
        <time>2025-05-13T07:12:25Z</time>
      </trkpt>
      <trkpt lat="48.65816" lon="1.88077">
        <ele>168.3</ele>
        <time>2025-05-13T07:12:31Z</time>
      </trkpt>
      <trkpt lat="48.65824" lon="1.88069">
        <ele>167.7</ele>
        <time>2025-05-13T07:12:41Z</time>
      </trkpt>
      <trkpt lat="48.65827" lon="1.88055">
        <ele>167.4</ele>
        <time>2025-05-13T07:12:47Z</time>
      </trkpt>
      <trkpt lat="48.65831" lon="1.88041">
        <ele>167.2</ele>
        <time>2025-05-13T07:12:54Z</time>
      </trkpt>
      <trkpt lat="48.65834" lon="1.88027">
        <ele>167</ele>
        <time>2025-05-13T07:13:01Z</time>
      </trkpt>
      <trkpt lat="48.65833" lon="1.88013">
        <ele>167.5</ele>
        <time>2025-05-13T07:13:08Z</time>
      </trkpt>
      <trkpt lat="48.65837" lon="1.87999">
        <ele>167.9</ele>
        <time>2025-05-13T07:13:15Z</time>
      </trkpt>
      <trkpt lat="48.65839" lon="1.87985">
        <ele>168.2</ele>
        <time>2025-05-13T07:13:22Z</time>
      </trkpt>
      <trkpt lat="48.65843" lon="1.87971">
        <ele>168.3</ele>
        <time>2025-05-13T07:13:30Z</time>
      </trkpt>
      <trkpt lat="48.65845" lon="1.87958">
        <ele>168.1</ele>
        <time>2025-05-13T07:13:37Z</time>
      </trkpt>
      <trkpt lat="48.65851" lon="1.87946">
        <ele>167.8</ele>
        <time>2025-05-13T07:13:44Z</time>
      </trkpt>
      <trkpt lat="48.65856" lon="1.87935">
        <ele>167.6</ele>
        <time>2025-05-13T07:13:51Z</time>
      </trkpt>
      <trkpt lat="48.65863" lon="1.87925">
        <ele>167.7</ele>
        <time>2025-05-13T07:13:58Z</time>
      </trkpt>
      <trkpt lat="48.65866" lon="1.8791">
        <ele>168</ele>
        <time>2025-05-13T07:14:06Z</time>
      </trkpt>
      <trkpt lat="48.65872" lon="1.879">
        <ele>168</ele>
        <time>2025-05-13T07:14:13Z</time>
      </trkpt>
      <trkpt lat="48.65876" lon="1.87885">
        <ele>168</ele>
        <time>2025-05-13T07:14:20Z</time>
      </trkpt>
      <trkpt lat="48.65883" lon="1.87877">
        <ele>167.7</ele>
        <time>2025-05-13T07:14:28Z</time>
      </trkpt>
      <trkpt lat="48.65891" lon="1.87885">
        <ele>167.1</ele>
        <time>2025-05-13T07:14:37Z</time>
      </trkpt>
      <trkpt lat="48.65899" lon="1.87876">
        <ele>167.3</ele>
        <time>2025-05-13T07:14:44Z</time>
      </trkpt>
      <trkpt lat="48.65902" lon="1.87863">
        <ele>167.5</ele>
        <time>2025-05-13T07:14:50Z</time>
      </trkpt>
      <trkpt lat="48.65909" lon="1.87854">
        <ele>167.3</ele>
        <time>2025-05-13T07:14:59Z</time>
      </trkpt>
      <trkpt lat="48.65912" lon="1.87841">
        <ele>167.3</ele>
        <time>2025-05-13T07:15:06Z</time>
      </trkpt>
      <trkpt lat="48.65917" lon="1.87829">
        <ele>167.2</ele>
        <time>2025-05-13T07:15:12Z</time>
      </trkpt>
      <trkpt lat="48.65923" lon="1.87818">
        <ele>167.4</ele>
        <time>2025-05-13T07:15:19Z</time>
      </trkpt>
      <trkpt lat="48.65931" lon="1.87811">
        <ele>167.4</ele>
        <time>2025-05-13T07:15:27Z</time>
      </trkpt>
      <trkpt lat="48.65931" lon="1.87797">
        <ele>167.8</ele>
        <time>2025-05-13T07:15:33Z</time>
      </trkpt>
      <trkpt lat="48.65938" lon="1.87787">
        <ele>167.9</ele>
        <time>2025-05-13T07:15:40Z</time>
      </trkpt>
      <trkpt lat="48.65947" lon="1.87778">
        <ele>167.9</ele>
        <time>2025-05-13T07:15:48Z</time>
      </trkpt>
      <trkpt lat="48.6595" lon="1.87764">
        <ele>167.8</ele>
        <time>2025-05-13T07:15:54Z</time>
      </trkpt>
      <trkpt lat="48.65949" lon="1.8775">
        <ele>167.8</ele>
        <time>2025-05-13T07:16:00Z</time>
      </trkpt>
      <trkpt lat="48.65955" lon="1.87738">
        <ele>167.6</ele>
        <time>2025-05-13T07:16:09Z</time>
      </trkpt>
      <trkpt lat="48.65957" lon="1.87724">
        <ele>167.6</ele>
        <time>2025-05-13T07:16:16Z</time>
      </trkpt>
      <trkpt lat="48.65956" lon="1.87711">
        <ele>167.3</ele>
        <time>2025-05-13T07:16:23Z</time>
      </trkpt>
      <trkpt lat="48.65954" lon="1.87696">
        <ele>167</ele>
        <time>2025-05-13T07:16:30Z</time>
      </trkpt>
      <trkpt lat="48.65946" lon="1.87689">
        <ele>167</ele>
        <time>2025-05-13T07:16:36Z</time>
      </trkpt>
      <trkpt lat="48.65951" lon="1.87677">
        <ele>167.1</ele>
        <time>2025-05-13T07:16:46Z</time>
      </trkpt>
      <trkpt lat="48.6596" lon="1.87672">
        <ele>167.5</ele>
        <time>2025-05-13T07:16:55Z</time>
      </trkpt>
      <trkpt lat="48.6597" lon="1.87672">
        <ele>167.7</ele>
        <time>2025-05-13T07:17:05Z</time>
      </trkpt>
      <trkpt lat="48.6598" lon="1.87674">
        <ele>167.7</ele>
        <time>2025-05-13T07:17:13Z</time>
      </trkpt>
      <trkpt lat="48.65989" lon="1.87677">
        <ele>167.6</ele>
        <time>2025-05-13T07:17:20Z</time>
      </trkpt>
      <trkpt lat="48.65997" lon="1.87672">
        <ele>167.8</ele>
        <time>2025-05-13T07:17:29Z</time>
      </trkpt>
      <trkpt lat="48.65998" lon="1.87657">
        <ele>168</ele>
        <time>2025-05-13T07:18:25Z</time>
      </trkpt>
      <trkpt lat="48.66001" lon="1.87642">
        <ele>167.9</ele>
        <time>2025-05-13T07:18:32Z</time>
      </trkpt>
      <trkpt lat="48.66004" lon="1.87629">
        <ele>167.9</ele>
        <time>2025-05-13T07:18:38Z</time>
      </trkpt>
      <trkpt lat="48.66007" lon="1.87615">
        <ele>168</ele>
        <time>2025-05-13T07:18:45Z</time>
      </trkpt>
      <trkpt lat="48.66015" lon="1.8761">
        <ele>168</ele>
        <time>2025-05-13T07:18:53Z</time>
      </trkpt>
      <trkpt lat="48.66025" lon="1.87605">
        <ele>168</ele>
        <time>2025-05-13T07:19:00Z</time>
      </trkpt>
      <trkpt lat="48.66035" lon="1.876">
        <ele>167.8</ele>
        <time>2025-05-13T07:19:07Z</time>
      </trkpt>
      <trkpt lat="48.66044" lon="1.87593">
        <ele>167.8</ele>
        <time>2025-05-13T07:19:13Z</time>
      </trkpt>
      <trkpt lat="48.66052" lon="1.87589">
        <ele>167.8</ele>
        <time>2025-05-13T07:19:19Z</time>
      </trkpt>
      <trkpt lat="48.66061" lon="1.87584">
        <ele>168</ele>
        <time>2025-05-13T07:19:25Z</time>
      </trkpt>
      <trkpt lat="48.6607" lon="1.87578">
        <ele>168</ele>
        <time>2025-05-13T07:19:32Z</time>
      </trkpt>
      <trkpt lat="48.66078" lon="1.8757">
        <ele>168</ele>
        <time>2025-05-13T07:19:38Z</time>
      </trkpt>
      <trkpt lat="48.66088" lon="1.87564">
        <ele>168</ele>
        <time>2025-05-13T07:19:45Z</time>
      </trkpt>
      <trkpt lat="48.66097" lon="1.8756">
        <ele>168</ele>
        <time>2025-05-13T07:19:51Z</time>
      </trkpt>
      <trkpt lat="48.66106" lon="1.87556">
        <ele>168</ele>
        <time>2025-05-13T07:19:58Z</time>
      </trkpt>
      <trkpt lat="48.66115" lon="1.87551">
        <ele>168.2</ele>
        <time>2025-05-13T07:20:05Z</time>
      </trkpt>
      <trkpt lat="48.66125" lon="1.87545">
        <ele>168.4</ele>
        <time>2025-05-13T07:20:12Z</time>
      </trkpt>
      <trkpt lat="48.66134" lon="1.87541">
        <ele>168.5</ele>
        <time>2025-05-13T07:20:19Z</time>
      </trkpt>
      <trkpt lat="48.66143" lon="1.87536">
        <ele>168.6</ele>
        <time>2025-05-13T07:20:25Z</time>
      </trkpt>
      <trkpt lat="48.66153" lon="1.87531">
        <ele>168.4</ele>
        <time>2025-05-13T07:20:32Z</time>
      </trkpt>
      <trkpt lat="48.66162" lon="1.87526">
        <ele>168.2</ele>
        <time>2025-05-13T07:20:38Z</time>
      </trkpt>
      <trkpt lat="48.66171" lon="1.87519">
        <ele>168.3</ele>
        <time>2025-05-13T07:20:45Z</time>
      </trkpt>
      <trkpt lat="48.6618" lon="1.87513">
        <ele>168.5</ele>
        <time>2025-05-13T07:20:52Z</time>
      </trkpt>
      <trkpt lat="48.66189" lon="1.87509">
        <ele>168.7</ele>
        <time>2025-05-13T07:20:59Z</time>
      </trkpt>
      <trkpt lat="48.66199" lon="1.87508">
        <ele>168.6</ele>
        <time>2025-05-13T07:21:06Z</time>
      </trkpt>
      <trkpt lat="48.66208" lon="1.87504">
        <ele>168.4</ele>
        <time>2025-05-13T07:21:12Z</time>
      </trkpt>
      <trkpt lat="48.66217" lon="1.87498">
        <ele>168.2</ele>
        <time>2025-05-13T07:21:18Z</time>
      </trkpt>
      <trkpt lat="48.66226" lon="1.87494">
        <ele>168</ele>
        <time>2025-05-13T07:21:24Z</time>
      </trkpt>
      <trkpt lat="48.66234" lon="1.8749">
        <ele>168</ele>
        <time>2025-05-13T07:21:30Z</time>
      </trkpt>
      <trkpt lat="48.66243" lon="1.87485">
        <ele>168</ele>
        <time>2025-05-13T07:21:36Z</time>
      </trkpt>
      <trkpt lat="48.66252" lon="1.8748">
        <ele>168</ele>
        <time>2025-05-13T07:21:42Z</time>
      </trkpt>
      <trkpt lat="48.66261" lon="1.87476">
        <ele>168</ele>
        <time>2025-05-13T07:21:48Z</time>
      </trkpt>
      <trkpt lat="48.6627" lon="1.87476">
        <ele>168.1</ele>
        <time>2025-05-13T07:21:55Z</time>
      </trkpt>
      <trkpt lat="48.66273" lon="1.87488">
        <ele>168.5</ele>
        <time>2025-05-13T07:22:02Z</time>
      </trkpt>
      <trkpt lat="48.66277" lon="1.87501">
        <ele>168.9</ele>
        <time>2025-05-13T07:22:09Z</time>
      </trkpt>
      <trkpt lat="48.66279" lon="1.87515">
        <ele>168.5</ele>
        <time>2025-05-13T07:22:16Z</time>
      </trkpt>
      <trkpt lat="48.66279" lon="1.87528">
        <ele>168</ele>
        <time>2025-05-13T07:22:22Z</time>
      </trkpt>
      <trkpt lat="48.66282" lon="1.87543">
        <ele>167.9</ele>
        <time>2025-05-13T07:22:29Z</time>
      </trkpt>
      <trkpt lat="48.66283" lon="1.87557">
        <ele>168</ele>
        <time>2025-05-13T07:22:36Z</time>
      </trkpt>
      <trkpt lat="48.66287" lon="1.87571">
        <ele>168.2</ele>
        <time>2025-05-13T07:22:43Z</time>
      </trkpt>
      <trkpt lat="48.66289" lon="1.87585">
        <ele>168.4</ele>
        <time>2025-05-13T07:22:54Z</time>
      </trkpt>
      <trkpt lat="48.66295" lon="1.87597">
        <ele>168.6</ele>
        <time>2025-05-13T07:23:23Z</time>
      </trkpt>
      <trkpt lat="48.66298" lon="1.87611">
        <ele>168.7</ele>
        <time>2025-05-13T07:23:30Z</time>
      </trkpt>
      <trkpt lat="48.66301" lon="1.87625">
        <ele>168.9</ele>
        <time>2025-05-13T07:23:38Z</time>
      </trkpt>
      <trkpt lat="48.66302" lon="1.8764">
        <ele>169</ele>
        <time>2025-05-13T07:23:45Z</time>
      </trkpt>
      <trkpt lat="48.66305" lon="1.87654">
        <ele>169</ele>
        <time>2025-05-13T07:23:52Z</time>
      </trkpt>
      <trkpt lat="48.66308" lon="1.87669">
        <ele>169</ele>
        <time>2025-05-13T07:23:59Z</time>
      </trkpt>
      <trkpt lat="48.66308" lon="1.87684">
        <ele>169.1</ele>
        <time>2025-05-13T07:24:07Z</time>
      </trkpt>
      <trkpt lat="48.66307" lon="1.87698">
        <ele>169.2</ele>
        <time>2025-05-13T07:24:15Z</time>
      </trkpt>
      <trkpt lat="48.66301" lon="1.8771">
        <ele>169.5</ele>
        <time>2025-05-13T07:24:23Z</time>
      </trkpt>
      <trkpt lat="48.66295" lon="1.87721">
        <ele>169.6</ele>
        <time>2025-05-13T07:24:30Z</time>
      </trkpt>
      <trkpt lat="48.66288" lon="1.87733">
        <ele>169.4</ele>
        <time>2025-05-13T07:24:37Z</time>
      </trkpt>
      <trkpt lat="48.66281" lon="1.87744">
        <ele>169.1</ele>
        <time>2025-05-13T07:24:44Z</time>
      </trkpt>
      <trkpt lat="48.66277" lon="1.87758">
        <ele>169</ele>
        <time>2025-05-13T07:24:51Z</time>
      </trkpt>
      <trkpt lat="48.66272" lon="1.87771">
        <ele>169</ele>
        <time>2025-05-13T07:24:58Z</time>
      </trkpt>
      <trkpt lat="48.66266" lon="1.87783">
        <ele>169</ele>
        <time>2025-05-13T07:25:05Z</time>
      </trkpt>
      <trkpt lat="48.6626" lon="1.87795">
        <ele>169</ele>
        <time>2025-05-13T07:25:12Z</time>
      </trkpt>
      <trkpt lat="48.66255" lon="1.87806">
        <ele>169</ele>
        <time>2025-05-13T07:25:18Z</time>
      </trkpt>
      <trkpt lat="48.66249" lon="1.87817">
        <ele>169</ele>
        <time>2025-05-13T07:25:24Z</time>
      </trkpt>
      <trkpt lat="48.66242" lon="1.87829">
        <ele>168.8</ele>
        <time>2025-05-13T07:25:31Z</time>
      </trkpt>
      <trkpt lat="48.66235" lon="1.87839">
        <ele>168.2</ele>
        <time>2025-05-13T07:25:38Z</time>
      </trkpt>
      <trkpt lat="48.66229" lon="1.87852">
        <ele>167.6</ele>
        <time>2025-05-13T07:25:45Z</time>
      </trkpt>
      <trkpt lat="48.66223" lon="1.87862">
        <ele>167.1</ele>
        <time>2025-05-13T07:25:51Z</time>
      </trkpt>
      <trkpt lat="48.66217" lon="1.87874">
        <ele>167.4</ele>
        <time>2025-05-13T07:25:58Z</time>
      </trkpt>
      <trkpt lat="48.66211" lon="1.87885">
        <ele>167.5</ele>
        <time>2025-05-13T07:26:05Z</time>
      </trkpt>
      <trkpt lat="48.66206" lon="1.87897">
        <ele>167.3</ele>
        <time>2025-05-13T07:26:12Z</time>
      </trkpt>
      <trkpt lat="48.662" lon="1.87908">
        <ele>167.1</ele>
        <time>2025-05-13T07:26:19Z</time>
      </trkpt>
      <trkpt lat="48.66194" lon="1.8792">
        <ele>167.1</ele>
        <time>2025-05-13T07:26:26Z</time>
      </trkpt>
      <trkpt lat="48.6619" lon="1.87933">
        <ele>167.5</ele>
        <time>2025-05-13T07:26:33Z</time>
      </trkpt>
      <trkpt lat="48.66185" lon="1.87945">
        <ele>167.6</ele>
        <time>2025-05-13T07:26:40Z</time>
      </trkpt>
      <trkpt lat="48.66178" lon="1.87957">
        <ele>167.2</ele>
        <time>2025-05-13T07:26:47Z</time>
      </trkpt>
      <trkpt lat="48.6617" lon="1.87966">
        <ele>167</ele>
        <time>2025-05-13T07:26:54Z</time>
      </trkpt>
      <trkpt lat="48.66163" lon="1.87976">
        <ele>167.1</ele>
        <time>2025-05-13T07:27:01Z</time>
      </trkpt>
      <trkpt lat="48.66155" lon="1.87984">
        <ele>167.4</ele>
        <time>2025-05-13T07:27:08Z</time>
      </trkpt>
      <trkpt lat="48.66146" lon="1.87988">
        <ele>167.6</ele>
        <time>2025-05-13T07:27:16Z</time>
      </trkpt>
      <trkpt lat="48.66136" lon="1.87991">
        <ele>167.7</ele>
        <time>2025-05-13T07:27:24Z</time>
      </trkpt>
      <trkpt lat="48.66126" lon="1.87991">
        <ele>167.7</ele>
        <time>2025-05-13T07:27:31Z</time>
      </trkpt>
      <trkpt lat="48.66116" lon="1.87992">
        <ele>167.7</ele>
        <time>2025-05-13T07:27:38Z</time>
      </trkpt>
      <trkpt lat="48.66107" lon="1.87999">
        <ele>167.8</ele>
        <time>2025-05-13T07:27:45Z</time>
      </trkpt>
      <trkpt lat="48.66098" lon="1.88007">
        <ele>167.8</ele>
        <time>2025-05-13T07:27:52Z</time>
      </trkpt>
      <trkpt lat="48.6609" lon="1.88014">
        <ele>167.8</ele>
        <time>2025-05-13T07:27:58Z</time>
      </trkpt>
      <trkpt lat="48.66082" lon="1.88024">
        <ele>167.8</ele>
        <time>2025-05-13T07:28:05Z</time>
      </trkpt>
      <trkpt lat="48.66074" lon="1.88033">
        <ele>167.9</ele>
        <time>2025-05-13T07:28:12Z</time>
      </trkpt>
      <trkpt lat="48.66066" lon="1.88041">
        <ele>167.8</ele>
        <time>2025-05-13T07:28:19Z</time>
      </trkpt>
      <trkpt lat="48.66057" lon="1.88046">
        <ele>167.7</ele>
        <time>2025-05-13T07:28:26Z</time>
      </trkpt>
      <trkpt lat="48.66047" lon="1.88048">
        <ele>167.7</ele>
        <time>2025-05-13T07:28:33Z</time>
      </trkpt>
      <trkpt lat="48.66037" lon="1.88046">
        <ele>167.7</ele>
        <time>2025-05-13T07:28:40Z</time>
      </trkpt>
      <trkpt lat="48.66028" lon="1.88044">
        <ele>167.6</ele>
        <time>2025-05-13T07:28:47Z</time>
      </trkpt>
      <trkpt lat="48.66019" lon="1.8804">
        <ele>167.6</ele>
        <time>2025-05-13T07:28:54Z</time>
      </trkpt>
      <trkpt lat="48.6601" lon="1.88036">
        <ele>167.5</ele>
        <time>2025-05-13T07:29:01Z</time>
      </trkpt>
      <trkpt lat="48.66" lon="1.88035">
        <ele>167.5</ele>
        <time>2025-05-13T07:29:08Z</time>
      </trkpt>
      <trkpt lat="48.6599" lon="1.88034">
        <ele>167.5</ele>
        <time>2025-05-13T07:29:14Z</time>
      </trkpt>
      <trkpt lat="48.65981" lon="1.88039">
        <ele>167.8</ele>
        <time>2025-05-13T07:29:20Z</time>
      </trkpt>
      <trkpt lat="48.65971" lon="1.88043">
        <ele>168</ele>
        <time>2025-05-13T07:29:27Z</time>
      </trkpt>
      <trkpt lat="48.65963" lon="1.88048">
        <ele>168</ele>
        <time>2025-05-13T07:29:34Z</time>
      </trkpt>
      <trkpt lat="48.65959" lon="1.88062">
        <ele>168.1</ele>
        <time>2025-05-13T07:29:41Z</time>
      </trkpt>
      <trkpt lat="48.65957" lon="1.88077">
        <ele>167.9</ele>
        <time>2025-05-13T07:29:48Z</time>
      </trkpt>
      <trkpt lat="48.65954" lon="1.88091">
        <ele>167.8</ele>
        <time>2025-05-13T07:29:55Z</time>
      </trkpt>
      <trkpt lat="48.65948" lon="1.88103">
        <ele>167.9</ele>
        <time>2025-05-13T07:30:03Z</time>
      </trkpt>
      <trkpt lat="48.65944" lon="1.88116">
        <ele>168</ele>
        <time>2025-05-13T07:30:10Z</time>
      </trkpt>
      <trkpt lat="48.6594" lon="1.88131">
        <ele>167.9</ele>
        <time>2025-05-13T07:30:17Z</time>
      </trkpt>
      <trkpt lat="48.65935" lon="1.88144">
        <ele>167.8</ele>
        <time>2025-05-13T07:30:24Z</time>
      </trkpt>
      <trkpt lat="48.65933" lon="1.88159">
        <ele>168</ele>
        <time>2025-05-13T07:30:31Z</time>
      </trkpt>
      <trkpt lat="48.6593" lon="1.88173">
        <ele>168.1</ele>
        <time>2025-05-13T07:30:38Z</time>
      </trkpt>
      <trkpt lat="48.65927" lon="1.88187">
        <ele>168.2</ele>
        <time>2025-05-13T07:30:45Z</time>
      </trkpt>
      <trkpt lat="48.65925" lon="1.88202">
        <ele>168.4</ele>
        <time>2025-05-13T07:30:52Z</time>
      </trkpt>
      <trkpt lat="48.65923" lon="1.88216">
        <ele>168.4</ele>
        <time>2025-05-13T07:30:59Z</time>
      </trkpt>
      <trkpt lat="48.65921" lon="1.88231">
        <ele>168.3</ele>
        <time>2025-05-13T07:31:06Z</time>
      </trkpt>
      <trkpt lat="48.65919" lon="1.88246">
        <ele>168.1</ele>
        <time>2025-05-13T07:31:13Z</time>
      </trkpt>
      <trkpt lat="48.65917" lon="1.88262">
        <ele>168</ele>
        <time>2025-05-13T07:31:20Z</time>
      </trkpt>
      <trkpt lat="48.65916" lon="1.88276">
        <ele>168</ele>
        <time>2025-05-13T07:31:26Z</time>
      </trkpt>
      <trkpt lat="48.65915" lon="1.88291">
        <ele>167.9</ele>
        <time>2025-05-13T07:31:33Z</time>
      </trkpt>
      <trkpt lat="48.65914" lon="1.88306">
        <ele>167.9</ele>
        <time>2025-05-13T07:31:40Z</time>
      </trkpt>
      <trkpt lat="48.65912" lon="1.8832">
        <ele>168.3</ele>
        <time>2025-05-13T07:31:47Z</time>
      </trkpt>
      <trkpt lat="48.65911" lon="1.88335">
        <ele>168.6</ele>
        <time>2025-05-13T07:31:54Z</time>
      </trkpt>
      <trkpt lat="48.65909" lon="1.8835">
        <ele>168.8</ele>
        <time>2025-05-13T07:32:01Z</time>
      </trkpt>
      <trkpt lat="48.65905" lon="1.88364">
        <ele>168.8</ele>
        <time>2025-05-13T07:32:08Z</time>
      </trkpt>
      <trkpt lat="48.65901" lon="1.88377">
        <ele>168.3</ele>
        <time>2025-05-13T07:32:15Z</time>
      </trkpt>
      <trkpt lat="48.65898" lon="1.88391">
        <ele>168</ele>
        <time>2025-05-13T07:32:22Z</time>
      </trkpt>
      <trkpt lat="48.65893" lon="1.88403">
        <ele>167.4</ele>
        <time>2025-05-13T07:32:30Z</time>
      </trkpt>
      <trkpt lat="48.65893" lon="1.88418">
        <ele>167.5</ele>
        <time>2025-05-13T07:32:47Z</time>
      </trkpt>
      <trkpt lat="48.65888" lon="1.88431">
        <ele>168</ele>
        <time>2025-05-13T07:32:54Z</time>
      </trkpt>
      <trkpt lat="48.65888" lon="1.88446">
        <ele>169</ele>
        <time>2025-05-13T07:33:02Z</time>
      </trkpt>
      <trkpt lat="48.65894" lon="1.88456">
        <ele>169.5</ele>
        <time>2025-05-13T07:33:08Z</time>
      </trkpt>
      <trkpt lat="48.65901" lon="1.88467">
        <ele>169.9</ele>
        <time>2025-05-13T07:33:15Z</time>
      </trkpt>
      <trkpt lat="48.65905" lon="1.88481">
        <ele>170.2</ele>
        <time>2025-05-13T07:33:22Z</time>
      </trkpt>
      <trkpt lat="48.65912" lon="1.8849">
        <ele>170.5</ele>
        <time>2025-05-13T07:33:29Z</time>
      </trkpt>
      <trkpt lat="48.65919" lon="1.88499">
        <ele>171</ele>
        <time>2025-05-13T07:33:38Z</time>
      </trkpt>
      <trkpt lat="48.65927" lon="1.88509">
        <ele>170.8</ele>
        <time>2025-05-13T07:33:57Z</time>
      </trkpt>
      <trkpt lat="48.65935" lon="1.88516">
        <ele>170.8</ele>
        <time>2025-05-13T07:34:05Z</time>
      </trkpt>
      <trkpt lat="48.65943" lon="1.88523">
        <ele>171</ele>
        <time>2025-05-13T07:34:12Z</time>
      </trkpt>
      <trkpt lat="48.65952" lon="1.88531">
        <ele>171</ele>
        <time>2025-05-13T07:34:20Z</time>
      </trkpt>
      <trkpt lat="48.6596" lon="1.88539">
        <ele>171</ele>
        <time>2025-05-13T07:34:27Z</time>
      </trkpt>
      <trkpt lat="48.65969" lon="1.88548">
        <ele>171</ele>
        <time>2025-05-13T07:34:34Z</time>
      </trkpt>
      <trkpt lat="48.65977" lon="1.88556">
        <ele>171</ele>
        <time>2025-05-13T07:34:40Z</time>
      </trkpt>
      <trkpt lat="48.65986" lon="1.88564">
        <ele>171</ele>
        <time>2025-05-13T07:34:47Z</time>
      </trkpt>
      <trkpt lat="48.65994" lon="1.88574">
        <ele>171</ele>
        <time>2025-05-13T07:34:54Z</time>
      </trkpt>
      <trkpt lat="48.66001" lon="1.88582">
        <ele>171</ele>
        <time>2025-05-13T07:35:00Z</time>
      </trkpt>
      <trkpt lat="48.66009" lon="1.88589">
        <ele>171</ele>
        <time>2025-05-13T07:35:06Z</time>
      </trkpt>
      <trkpt lat="48.66017" lon="1.88597">
        <ele>171</ele>
        <time>2025-05-13T07:35:12Z</time>
      </trkpt>
      <trkpt lat="48.66025" lon="1.88604">
        <ele>171</ele>
        <time>2025-05-13T07:35:18Z</time>
      </trkpt>
      <trkpt lat="48.66034" lon="1.88609">
        <ele>171</ele>
        <time>2025-05-13T07:35:25Z</time>
      </trkpt>
      <trkpt lat="48.66042" lon="1.88619">
        <ele>171</ele>
        <time>2025-05-13T07:35:32Z</time>
      </trkpt>
      <trkpt lat="48.6605" lon="1.88626">
        <ele>171</ele>
        <time>2025-05-13T07:35:39Z</time>
      </trkpt>
      <trkpt lat="48.66058" lon="1.88634">
        <ele>171</ele>
        <time>2025-05-13T07:35:46Z</time>
      </trkpt>
      <trkpt lat="48.66066" lon="1.88642">
        <ele>171</ele>
        <time>2025-05-13T07:35:53Z</time>
      </trkpt>
      <trkpt lat="48.66076" lon="1.88649">
        <ele>171</ele>
        <time>2025-05-13T07:36:00Z</time>
      </trkpt>
      <trkpt lat="48.66084" lon="1.88656">
        <ele>171</ele>
        <time>2025-05-13T07:36:06Z</time>
      </trkpt>
      <trkpt lat="48.66092" lon="1.88664">
        <ele>171</ele>
        <time>2025-05-13T07:36:13Z</time>
      </trkpt>
      <trkpt lat="48.661" lon="1.8867">
        <ele>171</ele>
        <time>2025-05-13T07:36:19Z</time>
      </trkpt>
      <trkpt lat="48.66109" lon="1.88676">
        <ele>171</ele>
        <time>2025-05-13T07:36:25Z</time>
      </trkpt>
      <trkpt lat="48.66117" lon="1.88684">
        <ele>171</ele>
        <time>2025-05-13T07:36:31Z</time>
      </trkpt>
      <trkpt lat="48.66125" lon="1.88692">
        <ele>171</ele>
        <time>2025-05-13T07:36:37Z</time>
      </trkpt>
      <trkpt lat="48.66133" lon="1.887">
        <ele>171</ele>
        <time>2025-05-13T07:36:44Z</time>
      </trkpt>
      <trkpt lat="48.66142" lon="1.88708">
        <ele>171</ele>
        <time>2025-05-13T07:36:51Z</time>
      </trkpt>
      <trkpt lat="48.66151" lon="1.88717">
        <ele>171</ele>
        <time>2025-05-13T07:36:58Z</time>
      </trkpt>
      <trkpt lat="48.66158" lon="1.88727">
        <ele>171</ele>
        <time>2025-05-13T07:37:05Z</time>
      </trkpt>
      <trkpt lat="48.66167" lon="1.88735">
        <ele>171</ele>
        <time>2025-05-13T07:37:12Z</time>
      </trkpt>
      <trkpt lat="48.66175" lon="1.88742">
        <ele>171</ele>
        <time>2025-05-13T07:37:19Z</time>
      </trkpt>
      <trkpt lat="48.66176" lon="1.88756">
        <ele>171</ele>
        <time>2025-05-13T07:37:30Z</time>
      </trkpt>
      <trkpt lat="48.66175" lon="1.8877">
        <ele>171</ele>
        <time>2025-05-13T07:37:39Z</time>
      </trkpt>
      <trkpt lat="48.66173" lon="1.88785">
        <ele>171</ele>
        <time>2025-05-13T07:37:47Z</time>
      </trkpt>
      <trkpt lat="48.66172" lon="1.888">
        <ele>171</ele>
        <time>2025-05-13T07:37:54Z</time>
      </trkpt>
      <trkpt lat="48.66173" lon="1.88815">
        <ele>171</ele>
        <time>2025-05-13T07:38:01Z</time>
      </trkpt>
      <trkpt lat="48.66172" lon="1.8883">
        <ele>171</ele>
        <time>2025-05-13T07:38:08Z</time>
      </trkpt>
      <trkpt lat="48.66172" lon="1.88845">
        <ele>171</ele>
        <time>2025-05-13T07:38:15Z</time>
      </trkpt>
      <trkpt lat="48.66173" lon="1.88861">
        <ele>171</ele>
        <time>2025-05-13T07:38:22Z</time>
      </trkpt>
      <trkpt lat="48.66171" lon="1.88874">
        <ele>171</ele>
        <time>2025-05-13T07:38:28Z</time>
      </trkpt>
      <trkpt lat="48.6617" lon="1.88888">
        <ele>171</ele>
        <time>2025-05-13T07:38:35Z</time>
      </trkpt>
      <trkpt lat="48.66172" lon="1.88902">
        <ele>171</ele>
        <time>2025-05-13T07:38:41Z</time>
      </trkpt>
      <trkpt lat="48.66172" lon="1.88917">
        <ele>171</ele>
        <time>2025-05-13T07:38:49Z</time>
      </trkpt>
      <trkpt lat="48.66173" lon="1.88933">
        <ele>171</ele>
        <time>2025-05-13T07:38:56Z</time>
      </trkpt>
      <trkpt lat="48.66169" lon="1.88946">
        <ele>171</ele>
        <time>2025-05-13T07:39:04Z</time>
      </trkpt>
      <trkpt lat="48.66169" lon="1.88962">
        <ele>171</ele>
        <time>2025-05-13T07:39:11Z</time>
      </trkpt>
      <trkpt lat="48.6617" lon="1.88975">
        <ele>171</ele>
        <time>2025-05-13T07:39:20Z</time>
      </trkpt>
      <trkpt lat="48.6617" lon="1.88991">
        <ele>171</ele>
        <time>2025-05-13T07:39:28Z</time>
      </trkpt>
      <trkpt lat="48.66169" lon="1.89006">
        <ele>171</ele>
        <time>2025-05-13T07:39:35Z</time>
      </trkpt>
      <trkpt lat="48.66168" lon="1.89021">
        <ele>171</ele>
        <time>2025-05-13T07:39:42Z</time>
      </trkpt>
      <trkpt lat="48.66166" lon="1.89037">
        <ele>171</ele>
        <time>2025-05-13T07:39:50Z</time>
      </trkpt>
      <trkpt lat="48.66165" lon="1.89051">
        <ele>171</ele>
        <time>2025-05-13T07:39:59Z</time>
      </trkpt>
      <trkpt lat="48.66165" lon="1.89067">
        <ele>171</ele>
        <time>2025-05-13T07:40:06Z</time>
      </trkpt>
      <trkpt lat="48.66168" lon="1.89082">
        <ele>171</ele>
        <time>2025-05-13T07:40:13Z</time>
      </trkpt>
      <trkpt lat="48.66169" lon="1.89095">
        <ele>171</ele>
        <time>2025-05-13T07:40:19Z</time>
      </trkpt>
      <trkpt lat="48.6617" lon="1.89111">
        <ele>171</ele>
        <time>2025-05-13T07:40:26Z</time>
      </trkpt>
      <trkpt lat="48.6617" lon="1.89124">
        <ele>171</ele>
        <time>2025-05-13T07:40:32Z</time>
      </trkpt>
      <trkpt lat="48.66169" lon="1.89139">
        <ele>171</ele>
        <time>2025-05-13T07:40:39Z</time>
      </trkpt>
      <trkpt lat="48.66169" lon="1.89153">
        <ele>171</ele>
        <time>2025-05-13T07:40:46Z</time>
      </trkpt>
      <trkpt lat="48.66169" lon="1.89168">
        <ele>171</ele>
        <time>2025-05-13T07:40:53Z</time>
      </trkpt>
      <trkpt lat="48.66169" lon="1.89183">
        <ele>171</ele>
        <time>2025-05-13T07:41:00Z</time>
      </trkpt>
      <trkpt lat="48.66168" lon="1.89197">
        <ele>171</ele>
        <time>2025-05-13T07:41:07Z</time>
      </trkpt>
      <trkpt lat="48.66167" lon="1.89212">
        <ele>171</ele>
        <time>2025-05-13T07:41:14Z</time>
      </trkpt>
      <trkpt lat="48.66166" lon="1.89226">
        <ele>171</ele>
        <time>2025-05-13T07:41:21Z</time>
      </trkpt>
      <trkpt lat="48.66167" lon="1.8924">
        <ele>171</ele>
        <time>2025-05-13T07:41:27Z</time>
      </trkpt>
      <trkpt lat="48.66166" lon="1.89254">
        <ele>171</ele>
        <time>2025-05-13T07:41:34Z</time>
      </trkpt>
      <trkpt lat="48.66165" lon="1.8927">
        <ele>171</ele>
        <time>2025-05-13T07:41:41Z</time>
      </trkpt>
      <trkpt lat="48.66168" lon="1.89283">
        <ele>171</ele>
        <time>2025-05-13T07:41:48Z</time>
      </trkpt>
      <trkpt lat="48.66171" lon="1.89298">
        <ele>171</ele>
        <time>2025-05-13T07:42:00Z</time>
      </trkpt>
      <trkpt lat="48.6617" lon="1.89312">
        <ele>171</ele>
        <time>2025-05-13T07:42:10Z</time>
      </trkpt>
      <trkpt lat="48.66168" lon="1.89326">
        <ele>171</ele>
        <time>2025-05-13T07:42:21Z</time>
      </trkpt>
      <trkpt lat="48.66173" lon="1.89339">
        <ele>171</ele>
        <time>2025-05-13T07:42:29Z</time>
      </trkpt>
      <trkpt lat="48.66179" lon="1.89352">
        <ele>171</ele>
        <time>2025-05-13T07:42:39Z</time>
      </trkpt>
      <trkpt lat="48.6618" lon="1.89366">
        <ele>171</ele>
        <time>2025-05-13T07:42:48Z</time>
      </trkpt>
      <trkpt lat="48.66172" lon="1.89371">
        <ele>171</ele>
        <time>2025-05-13T07:45:47Z</time>
      </trkpt>
      <trkpt lat="48.66163" lon="1.89376">
        <ele>171</ele>
        <time>2025-05-13T07:45:54Z</time>
      </trkpt>
      <trkpt lat="48.66154" lon="1.89381">
        <ele>171</ele>
        <time>2025-05-13T07:46:01Z</time>
      </trkpt>
      <trkpt lat="48.66146" lon="1.89387">
        <ele>171</ele>
        <time>2025-05-13T07:46:07Z</time>
      </trkpt>
      <trkpt lat="48.66138" lon="1.89395">
        <ele>171</ele>
        <time>2025-05-13T07:46:13Z</time>
      </trkpt>
      <trkpt lat="48.66129" lon="1.894">
        <ele>171.2</ele>
        <time>2025-05-13T07:46:20Z</time>
      </trkpt>
      <trkpt lat="48.6612" lon="1.89405">
        <ele>171.3</ele>
        <time>2025-05-13T07:46:27Z</time>
      </trkpt>
      <trkpt lat="48.66111" lon="1.8941">
        <ele>171.3</ele>
        <time>2025-05-13T07:46:34Z</time>
      </trkpt>
      <trkpt lat="48.66102" lon="1.89413">
        <ele>171.4</ele>
        <time>2025-05-13T07:46:42Z</time>
      </trkpt>
      <trkpt lat="48.66094" lon="1.8942">
        <ele>171.5</ele>
        <time>2025-05-13T07:46:50Z</time>
      </trkpt>
      <trkpt lat="48.66087" lon="1.89431">
        <ele>171.4</ele>
        <time>2025-05-13T07:46:57Z</time>
      </trkpt>
      <trkpt lat="48.66078" lon="1.8944">
        <ele>171.3</ele>
        <time>2025-05-13T07:47:04Z</time>
      </trkpt>
      <trkpt lat="48.6607" lon="1.89448">
        <ele>171.5</ele>
        <time>2025-05-13T07:47:11Z</time>
      </trkpt>
      <trkpt lat="48.66061" lon="1.89455">
        <ele>171.9</ele>
        <time>2025-05-13T07:47:18Z</time>
      </trkpt>
      <trkpt lat="48.66053" lon="1.89462">
        <ele>172</ele>
        <time>2025-05-13T07:47:25Z</time>
      </trkpt>
      <trkpt lat="48.66044" lon="1.8947">
        <ele>172</ele>
        <time>2025-05-13T07:47:32Z</time>
      </trkpt>
      <trkpt lat="48.66035" lon="1.89478">
        <ele>172</ele>
        <time>2025-05-13T07:47:39Z</time>
      </trkpt>
      <trkpt lat="48.66026" lon="1.89482">
        <ele>172</ele>
        <time>2025-05-13T07:47:46Z</time>
      </trkpt>
      <trkpt lat="48.66018" lon="1.8949">
        <ele>172</ele>
        <time>2025-05-13T07:47:52Z</time>
      </trkpt>
      <trkpt lat="48.66008" lon="1.89496">
        <ele>172</ele>
        <time>2025-05-13T07:47:59Z</time>
      </trkpt>
      <trkpt lat="48.65999" lon="1.89503">
        <ele>172</ele>
        <time>2025-05-13T07:48:06Z</time>
      </trkpt>
      <trkpt lat="48.65991" lon="1.8951">
        <ele>172</ele>
        <time>2025-05-13T07:48:12Z</time>
      </trkpt>
      <trkpt lat="48.65982" lon="1.89518">
        <ele>172</ele>
        <time>2025-05-13T07:48:19Z</time>
      </trkpt>
      <trkpt lat="48.65974" lon="1.89524">
        <ele>172</ele>
        <time>2025-05-13T07:48:25Z</time>
      </trkpt>
      <trkpt lat="48.65965" lon="1.8953">
        <ele>172.3</ele>
        <time>2025-05-13T07:48:32Z</time>
      </trkpt>
      <trkpt lat="48.65958" lon="1.89541">
        <ele>172.7</ele>
        <time>2025-05-13T07:48:41Z</time>
      </trkpt>
      <trkpt lat="48.65951" lon="1.89552">
        <ele>173</ele>
        <time>2025-05-13T07:48:49Z</time>
      </trkpt>
      <trkpt lat="48.65945" lon="1.89562">
        <ele>173</ele>
        <time>2025-05-13T07:48:56Z</time>
      </trkpt>
      <trkpt lat="48.65938" lon="1.89573">
        <ele>173</ele>
        <time>2025-05-13T07:49:03Z</time>
      </trkpt>
      <trkpt lat="48.65932" lon="1.89584">
        <ele>173</ele>
        <time>2025-05-13T07:49:09Z</time>
      </trkpt>
      <trkpt lat="48.65927" lon="1.89596">
        <ele>173</ele>
        <time>2025-05-13T07:49:15Z</time>
      </trkpt>
      <trkpt lat="48.65921" lon="1.89606">
        <ele>173</ele>
        <time>2025-05-13T07:49:21Z</time>
      </trkpt>
      <trkpt lat="48.65916" lon="1.89619">
        <ele>173</ele>
        <time>2025-05-13T07:49:27Z</time>
      </trkpt>
      <trkpt lat="48.6591" lon="1.8963">
        <ele>173</ele>
        <time>2025-05-13T07:49:33Z</time>
      </trkpt>
      <trkpt lat="48.65904" lon="1.89642">
        <ele>173</ele>
        <time>2025-05-13T07:49:39Z</time>
      </trkpt>
      <trkpt lat="48.65899" lon="1.89653">
        <ele>173</ele>
        <time>2025-05-13T07:49:45Z</time>
      </trkpt>
      <trkpt lat="48.65894" lon="1.89664">
        <ele>173</ele>
        <time>2025-05-13T07:49:51Z</time>
      </trkpt>
      <trkpt lat="48.65889" lon="1.89676">
        <ele>173</ele>
        <time>2025-05-13T07:49:57Z</time>
      </trkpt>
      <trkpt lat="48.65883" lon="1.89689">
        <ele>173</ele>
        <time>2025-05-13T07:50:04Z</time>
      </trkpt>
      <trkpt lat="48.65878" lon="1.89701">
        <ele>173</ele>
        <time>2025-05-13T07:50:11Z</time>
      </trkpt>
      <trkpt lat="48.65874" lon="1.89714">
        <ele>173</ele>
        <time>2025-05-13T07:50:17Z</time>
      </trkpt>
      <trkpt lat="48.65868" lon="1.89726">
        <ele>173</ele>
        <time>2025-05-13T07:50:24Z</time>
      </trkpt>
      <trkpt lat="48.65863" lon="1.89737">
        <ele>173</ele>
        <time>2025-05-13T07:50:30Z</time>
      </trkpt>
      <trkpt lat="48.65857" lon="1.89748">
        <ele>173</ele>
        <time>2025-05-13T07:50:36Z</time>
      </trkpt>
      <trkpt lat="48.65852" lon="1.89762">
        <ele>172.7</ele>
        <time>2025-05-13T07:50:43Z</time>
      </trkpt>
      <trkpt lat="48.65846" lon="1.89775">
        <ele>172.6</ele>
        <time>2025-05-13T07:50:50Z</time>
      </trkpt>
      <trkpt lat="48.65842" lon="1.89789">
        <ele>172.8</ele>
        <time>2025-05-13T07:50:57Z</time>
      </trkpt>
      <trkpt lat="48.65836" lon="1.89802">
        <ele>173</ele>
        <time>2025-05-13T07:51:04Z</time>
      </trkpt>
      <trkpt lat="48.65829" lon="1.89811">
        <ele>173</ele>
        <time>2025-05-13T07:51:11Z</time>
      </trkpt>
      <trkpt lat="48.65823" lon="1.89822">
        <ele>173</ele>
        <time>2025-05-13T07:51:18Z</time>
      </trkpt>
      <trkpt lat="48.65817" lon="1.89836">
        <ele>173</ele>
        <time>2025-05-13T07:51:25Z</time>
      </trkpt>
      <trkpt lat="48.65812" lon="1.89848">
        <ele>173</ele>
        <time>2025-05-13T07:51:32Z</time>
      </trkpt>
      <trkpt lat="48.65807" lon="1.89862">
        <ele>173</ele>
        <time>2025-05-13T07:51:39Z</time>
      </trkpt>
      <trkpt lat="48.65801" lon="1.89874">
        <ele>173</ele>
        <time>2025-05-13T07:51:45Z</time>
      </trkpt>
      <trkpt lat="48.65796" lon="1.89886">
        <ele>173</ele>
        <time>2025-05-13T07:51:52Z</time>
      </trkpt>
      <trkpt lat="48.65789" lon="1.89898">
        <ele>173</ele>
        <time>2025-05-13T07:51:59Z</time>
      </trkpt>
      <trkpt lat="48.65784" lon="1.89911">
        <ele>173</ele>
        <time>2025-05-13T07:52:06Z</time>
      </trkpt>
      <trkpt lat="48.6578" lon="1.89924">
        <ele>173</ele>
        <time>2025-05-13T07:52:12Z</time>
      </trkpt>
      <trkpt lat="48.65774" lon="1.89935">
        <ele>173</ele>
        <time>2025-05-13T07:52:19Z</time>
      </trkpt>
      <trkpt lat="48.65768" lon="1.89947">
        <ele>173</ele>
        <time>2025-05-13T07:52:25Z</time>
      </trkpt>
      <trkpt lat="48.65762" lon="1.89958">
        <ele>173</ele>
        <time>2025-05-13T07:52:32Z</time>
      </trkpt>
      <trkpt lat="48.65758" lon="1.8997">
        <ele>173</ele>
        <time>2025-05-13T07:52:39Z</time>
      </trkpt>
      <trkpt lat="48.65752" lon="1.89982">
        <ele>173</ele>
        <time>2025-05-13T07:52:47Z</time>
      </trkpt>
      <trkpt lat="48.65753" lon="1.90004">
        <ele>173</ele>
        <time>2025-05-13T07:53:18Z</time>
      </trkpt>
      <trkpt lat="48.65753" lon="1.90019">
        <ele>173</ele>
        <time>2025-05-13T07:54:06Z</time>
      </trkpt>
      <trkpt lat="48.65746" lon="1.90029">
        <ele>173</ele>
        <time>2025-05-13T07:54:11Z</time>
      </trkpt>
      <trkpt lat="48.65737" lon="1.90035">
        <ele>173</ele>
        <time>2025-05-13T07:54:20Z</time>
      </trkpt>
      <trkpt lat="48.65731" lon="1.90046">
        <ele>173</ele>
        <time>2025-05-13T07:54:27Z</time>
      </trkpt>
      <trkpt lat="48.65726" lon="1.90059">
        <ele>173</ele>
        <time>2025-05-13T07:54:35Z</time>
      </trkpt>
      <trkpt lat="48.65718" lon="1.9007">
        <ele>173</ele>
        <time>2025-05-13T07:54:43Z</time>
      </trkpt>
      <trkpt lat="48.65713" lon="1.90082">
        <ele>173</ele>
        <time>2025-05-13T07:54:50Z</time>
      </trkpt>
      <trkpt lat="48.65705" lon="1.90089">
        <ele>173</ele>
        <time>2025-05-13T07:54:59Z</time>
      </trkpt>
      <trkpt lat="48.65701" lon="1.90102">
        <ele>173</ele>
        <time>2025-05-13T07:55:05Z</time>
      </trkpt>
      <trkpt lat="48.65697" lon="1.90115">
        <ele>173</ele>
        <time>2025-05-13T07:55:11Z</time>
      </trkpt>
      <trkpt lat="48.65691" lon="1.90127">
        <ele>173</ele>
        <time>2025-05-13T07:55:17Z</time>
      </trkpt>
      <trkpt lat="48.65686" lon="1.90139">
        <ele>173</ele>
        <time>2025-05-13T07:55:23Z</time>
      </trkpt>
      <trkpt lat="48.65681" lon="1.90151">
        <ele>173</ele>
        <time>2025-05-13T07:55:29Z</time>
      </trkpt>
      <trkpt lat="48.65675" lon="1.90164">
        <ele>173</ele>
        <time>2025-05-13T07:55:36Z</time>
      </trkpt>
      <trkpt lat="48.65674" lon="1.90179">
        <ele>173</ele>
        <time>2025-05-13T07:55:42Z</time>
      </trkpt>
      <trkpt lat="48.65669" lon="1.90191">
        <ele>173</ele>
        <time>2025-05-13T07:55:49Z</time>
      </trkpt>
      <trkpt lat="48.65664" lon="1.90202">
        <ele>173</ele>
        <time>2025-05-13T07:55:55Z</time>
      </trkpt>
      <trkpt lat="48.65658" lon="1.90216">
        <ele>173</ele>
        <time>2025-05-13T07:56:03Z</time>
      </trkpt>
      <trkpt lat="48.65654" lon="1.90228">
        <ele>173</ele>
        <time>2025-05-13T07:56:10Z</time>
      </trkpt>
      <trkpt lat="48.65648" lon="1.90239">
        <ele>173</ele>
        <time>2025-05-13T07:56:17Z</time>
      </trkpt>
      <trkpt lat="48.65642" lon="1.90249">
        <ele>173</ele>
        <time>2025-05-13T07:56:24Z</time>
      </trkpt>
      <trkpt lat="48.65635" lon="1.90258">
        <ele>173</ele>
        <time>2025-05-13T07:56:31Z</time>
      </trkpt>
      <trkpt lat="48.65629" lon="1.9027">
        <ele>173</ele>
        <time>2025-05-13T07:56:39Z</time>
      </trkpt>
      <trkpt lat="48.65627" lon="1.90283">
        <ele>173</ele>
        <time>2025-05-13T07:56:45Z</time>
      </trkpt>
      <trkpt lat="48.65636" lon="1.90272">
        <ele>173</ele>
        <time>2025-05-13T07:57:04Z</time>
      </trkpt>
      <trkpt lat="48.65626" lon="1.90278">
        <ele>173</ele>
        <time>2025-05-13T07:57:07Z</time>
      </trkpt>
      <trkpt lat="48.65621" lon="1.90292">
        <ele>173</ele>
        <time>2025-05-13T07:57:12Z</time>
      </trkpt>
      <trkpt lat="48.65613" lon="1.90301">
        <ele>173</ele>
        <time>2025-05-13T07:57:18Z</time>
      </trkpt>
      <trkpt lat="48.65611" lon="1.90314">
        <ele>173</ele>
        <time>2025-05-13T07:57:23Z</time>
      </trkpt>
      <trkpt lat="48.65607" lon="1.90328">
        <ele>173</ele>
        <time>2025-05-13T07:57:29Z</time>
      </trkpt>
      <trkpt lat="48.65603" lon="1.90341">
        <ele>172.8</ele>
        <time>2025-05-13T07:57:33Z</time>
      </trkpt>
      <trkpt lat="48.65598" lon="1.90353">
        <ele>172.6</ele>
        <time>2025-05-13T07:57:39Z</time>
      </trkpt>
      <trkpt lat="48.65593" lon="1.90365">
        <ele>172.6</ele>
        <time>2025-05-13T07:57:45Z</time>
      </trkpt>
      <trkpt lat="48.65589" lon="1.90379">
        <ele>172.4</ele>
        <time>2025-05-13T07:57:55Z</time>
      </trkpt>
      <trkpt lat="48.65583" lon="1.9039">
        <ele>172.1</ele>
        <time>2025-05-13T07:58:02Z</time>
      </trkpt>
      <trkpt lat="48.65577" lon="1.90401">
        <ele>172.6</ele>
        <time>2025-05-13T07:58:09Z</time>
      </trkpt>
      <trkpt lat="48.6557" lon="1.90411">
        <ele>172.9</ele>
        <time>2025-05-13T07:58:15Z</time>
      </trkpt>
      <trkpt lat="48.65564" lon="1.90421">
        <ele>173</ele>
        <time>2025-05-13T07:58:21Z</time>
      </trkpt>
      <trkpt lat="48.65555" lon="1.90426">
        <ele>173</ele>
        <time>2025-05-13T07:58:27Z</time>
      </trkpt>
      <trkpt lat="48.65547" lon="1.90433">
        <ele>173</ele>
        <time>2025-05-13T07:58:36Z</time>
      </trkpt>
      <trkpt lat="48.65554" lon="1.90451">
        <ele>172.8</ele>
        <time>2025-05-13T07:58:38Z</time>
      </trkpt>
      <trkpt lat="48.65548" lon="1.90462">
        <ele>172.5</ele>
        <time>2025-05-13T07:58:44Z</time>
      </trkpt>
      <trkpt lat="48.65544" lon="1.90475">
        <ele>172.4</ele>
        <time>2025-05-13T07:58:51Z</time>
      </trkpt>
      <trkpt lat="48.65537" lon="1.90487">
        <ele>172.3</ele>
        <time>2025-05-13T07:58:58Z</time>
      </trkpt>
      <trkpt lat="48.65531" lon="1.90499">
        <ele>172</ele>
        <time>2025-05-13T07:59:05Z</time>
      </trkpt>
      <trkpt lat="48.65525" lon="1.9051">
        <ele>172.1</ele>
        <time>2025-05-13T07:59:11Z</time>
      </trkpt>
      <trkpt lat="48.65519" lon="1.90524">
        <ele>172</ele>
        <time>2025-05-13T07:59:18Z</time>
      </trkpt>
      <trkpt lat="48.65514" lon="1.90536">
        <ele>172</ele>
        <time>2025-05-13T07:59:24Z</time>
      </trkpt>
      <trkpt lat="48.65507" lon="1.90547">
        <ele>172</ele>
        <time>2025-05-13T07:59:31Z</time>
      </trkpt>
      <trkpt lat="48.65503" lon="1.90563">
        <ele>172</ele>
        <time>2025-05-13T07:59:37Z</time>
      </trkpt>
      <trkpt lat="48.65499" lon="1.90575">
        <ele>172</ele>
        <time>2025-05-13T07:59:43Z</time>
      </trkpt>
      <trkpt lat="48.65493" lon="1.90587">
        <ele>172.2</ele>
        <time>2025-05-13T07:59:50Z</time>
      </trkpt>
      <trkpt lat="48.65487" lon="1.90599">
        <ele>172.2</ele>
        <time>2025-05-13T07:59:57Z</time>
      </trkpt>
      <trkpt lat="48.65481" lon="1.9061">
        <ele>172</ele>
        <time>2025-05-13T08:00:03Z</time>
      </trkpt>
      <trkpt lat="48.65475" lon="1.90622">
        <ele>172</ele>
        <time>2025-05-13T08:00:09Z</time>
      </trkpt>
      <trkpt lat="48.6547" lon="1.90634">
        <ele>172</ele>
        <time>2025-05-13T08:00:15Z</time>
      </trkpt>
      <trkpt lat="48.65463" lon="1.90645">
        <ele>172.1</ele>
        <time>2025-05-13T08:00:21Z</time>
      </trkpt>
      <trkpt lat="48.65459" lon="1.90657">
        <ele>172.3</ele>
        <time>2025-05-13T08:00:27Z</time>
      </trkpt>
      <trkpt lat="48.65454" lon="1.90669">
        <ele>172.6</ele>
        <time>2025-05-13T08:00:33Z</time>
      </trkpt>
      <trkpt lat="48.65449" lon="1.90681">
        <ele>172.4</ele>
        <time>2025-05-13T08:00:39Z</time>
      </trkpt>
      <trkpt lat="48.65443" lon="1.90693">
        <ele>172.1</ele>
        <time>2025-05-13T08:00:46Z</time>
      </trkpt>
      <trkpt lat="48.65438" lon="1.90704">
        <ele>172.3</ele>
        <time>2025-05-13T08:00:52Z</time>
      </trkpt>
      <trkpt lat="48.65433" lon="1.90716">
        <ele>172.4</ele>
        <time>2025-05-13T08:00:58Z</time>
      </trkpt>
      <trkpt lat="48.65427" lon="1.90727">
        <ele>172.3</ele>
        <time>2025-05-13T08:01:04Z</time>
      </trkpt>
      <trkpt lat="48.65422" lon="1.9074">
        <ele>172.1</ele>
        <time>2025-05-13T08:01:10Z</time>
      </trkpt>
      <trkpt lat="48.65416" lon="1.90751">
        <ele>172</ele>
        <time>2025-05-13T08:01:16Z</time>
      </trkpt>
      <trkpt lat="48.6541" lon="1.90763">
        <ele>172</ele>
        <time>2025-05-13T08:01:22Z</time>
      </trkpt>
      <trkpt lat="48.65405" lon="1.90775">
        <ele>172</ele>
        <time>2025-05-13T08:01:28Z</time>
      </trkpt>
      <trkpt lat="48.65401" lon="1.90788">
        <ele>172</ele>
        <time>2025-05-13T08:01:34Z</time>
      </trkpt>
      <trkpt lat="48.65395" lon="1.908">
        <ele>172</ele>
        <time>2025-05-13T08:01:40Z</time>
      </trkpt>
      <trkpt lat="48.6539" lon="1.90813">
        <ele>172</ele>
        <time>2025-05-13T08:01:46Z</time>
      </trkpt>
      <trkpt lat="48.65386" lon="1.90826">
        <ele>172</ele>
        <time>2025-05-13T08:01:52Z</time>
      </trkpt>
      <trkpt lat="48.65381" lon="1.90837">
        <ele>172</ele>
        <time>2025-05-13T08:01:58Z</time>
      </trkpt>
      <trkpt lat="48.65375" lon="1.90849">
        <ele>172.3</ele>
        <time>2025-05-13T08:02:04Z</time>
      </trkpt>
      <trkpt lat="48.6537" lon="1.90862">
        <ele>172.7</ele>
        <time>2025-05-13T08:02:10Z</time>
      </trkpt>
      <trkpt lat="48.65365" lon="1.90874">
        <ele>172.9</ele>
        <time>2025-05-13T08:02:16Z</time>
      </trkpt>
      <trkpt lat="48.6536" lon="1.90886">
        <ele>173</ele>
        <time>2025-05-13T08:02:22Z</time>
      </trkpt>
      <trkpt lat="48.65354" lon="1.90898">
        <ele>173</ele>
        <time>2025-05-13T08:02:28Z</time>
      </trkpt>
      <trkpt lat="48.65348" lon="1.90909">
        <ele>173</ele>
        <time>2025-05-13T08:02:34Z</time>
      </trkpt>
      <trkpt lat="48.65342" lon="1.90921">
        <ele>173</ele>
        <time>2025-05-13T08:02:40Z</time>
      </trkpt>
      <trkpt lat="48.65336" lon="1.90932">
        <ele>173</ele>
        <time>2025-05-13T08:02:46Z</time>
      </trkpt>
      <trkpt lat="48.6533" lon="1.90943">
        <ele>173</ele>
        <time>2025-05-13T08:02:52Z</time>
      </trkpt>
      <trkpt lat="48.65326" lon="1.90957">
        <ele>173</ele>
        <time>2025-05-13T08:02:58Z</time>
      </trkpt>
      <trkpt lat="48.6532" lon="1.90969">
        <ele>173</ele>
        <time>2025-05-13T08:03:04Z</time>
      </trkpt>
      <trkpt lat="48.65315" lon="1.90981">
        <ele>173</ele>
        <time>2025-05-13T08:03:10Z</time>
      </trkpt>
      <trkpt lat="48.6531" lon="1.90993">
        <ele>173</ele>
        <time>2025-05-13T08:03:16Z</time>
      </trkpt>
      <trkpt lat="48.65305" lon="1.91005">
        <ele>173</ele>
        <time>2025-05-13T08:03:22Z</time>
      </trkpt>
      <trkpt lat="48.653" lon="1.91018">
        <ele>173</ele>
        <time>2025-05-13T08:03:28Z</time>
      </trkpt>
      <trkpt lat="48.65296" lon="1.91031">
        <ele>173</ele>
        <time>2025-05-13T08:03:34Z</time>
      </trkpt>
      <trkpt lat="48.65291" lon="1.91043">
        <ele>173</ele>
        <time>2025-05-13T08:03:41Z</time>
      </trkpt>
      <trkpt lat="48.6529" lon="1.91057">
        <ele>173</ele>
        <time>2025-05-13T08:03:50Z</time>
      </trkpt>
      <trkpt lat="48.65296" lon="1.91069">
        <ele>173</ele>
        <time>2025-05-13T08:03:58Z</time>
      </trkpt>
      <trkpt lat="48.65305" lon="1.91078">
        <ele>173</ele>
        <time>2025-05-13T08:04:05Z</time>
      </trkpt>
      <trkpt lat="48.65314" lon="1.91084">
        <ele>173</ele>
        <time>2025-05-13T08:04:12Z</time>
      </trkpt>
      <trkpt lat="48.65322" lon="1.91093">
        <ele>173</ele>
        <time>2025-05-13T08:04:18Z</time>
      </trkpt>
      <trkpt lat="48.6533" lon="1.91101">
        <ele>173</ele>
        <time>2025-05-13T08:04:26Z</time>
      </trkpt>
      <trkpt lat="48.65338" lon="1.9111">
        <ele>173</ele>
        <time>2025-05-13T08:04:33Z</time>
      </trkpt>
      <trkpt lat="48.65346" lon="1.91119">
        <ele>173</ele>
        <time>2025-05-13T08:04:40Z</time>
      </trkpt>
      <trkpt lat="48.65352" lon="1.91128">
        <ele>173</ele>
        <time>2025-05-13T08:04:47Z</time>
      </trkpt>
      <trkpt lat="48.65361" lon="1.91135">
        <ele>173</ele>
        <time>2025-05-13T08:04:54Z</time>
      </trkpt>
      <trkpt lat="48.65369" lon="1.91144">
        <ele>173</ele>
        <time>2025-05-13T08:05:01Z</time>
      </trkpt>
      <trkpt lat="48.65377" lon="1.91154">
        <ele>173</ele>
        <time>2025-05-13T08:05:09Z</time>
      </trkpt>
      <trkpt lat="48.65384" lon="1.91164">
        <ele>173</ele>
        <time>2025-05-13T08:05:16Z</time>
      </trkpt>
      <trkpt lat="48.65392" lon="1.91172">
        <ele>173</ele>
        <time>2025-05-13T08:05:23Z</time>
      </trkpt>
      <trkpt lat="48.654" lon="1.91181">
        <ele>173</ele>
        <time>2025-05-13T08:05:30Z</time>
      </trkpt>
      <trkpt lat="48.65407" lon="1.91191">
        <ele>173</ele>
        <time>2025-05-13T08:05:37Z</time>
      </trkpt>
      <trkpt lat="48.65414" lon="1.91201">
        <ele>173</ele>
        <time>2025-05-13T08:05:44Z</time>
      </trkpt>
      <trkpt lat="48.65422" lon="1.91209">
        <ele>173</ele>
        <time>2025-05-13T08:05:51Z</time>
      </trkpt>
      <trkpt lat="48.65429" lon="1.91217">
        <ele>173</ele>
        <time>2025-05-13T08:05:58Z</time>
      </trkpt>
      <trkpt lat="48.65437" lon="1.91223">
        <ele>173</ele>
        <time>2025-05-13T08:06:04Z</time>
      </trkpt>
      <trkpt lat="48.65445" lon="1.91232">
        <ele>173</ele>
        <time>2025-05-13T08:06:11Z</time>
      </trkpt>
      <trkpt lat="48.65453" lon="1.91242">
        <ele>173</ele>
        <time>2025-05-13T08:06:18Z</time>
      </trkpt>
      <trkpt lat="48.65461" lon="1.91251">
        <ele>173</ele>
        <time>2025-05-13T08:06:25Z</time>
      </trkpt>
      <trkpt lat="48.65469" lon="1.9126">
        <ele>173</ele>
        <time>2025-05-13T08:06:33Z</time>
      </trkpt>
      <trkpt lat="48.65476" lon="1.91269">
        <ele>173</ele>
        <time>2025-05-13T08:06:39Z</time>
      </trkpt>
      <trkpt lat="48.65483" lon="1.91278">
        <ele>173</ele>
        <time>2025-05-13T08:06:45Z</time>
      </trkpt>
      <trkpt lat="48.65491" lon="1.91286">
        <ele>173</ele>
        <time>2025-05-13T08:06:51Z</time>
      </trkpt>
      <trkpt lat="48.65499" lon="1.91295">
        <ele>173</ele>
        <time>2025-05-13T08:06:58Z</time>
      </trkpt>
      <trkpt lat="48.65508" lon="1.91301">
        <ele>173</ele>
        <time>2025-05-13T08:07:05Z</time>
      </trkpt>
      <trkpt lat="48.65515" lon="1.9131">
        <ele>173</ele>
        <time>2025-05-13T08:07:11Z</time>
      </trkpt>
      <trkpt lat="48.65521" lon="1.9132">
        <ele>173</ele>
        <time>2025-05-13T08:07:18Z</time>
      </trkpt>
      <trkpt lat="48.65527" lon="1.91331">
        <ele>173</ele>
        <time>2025-05-13T08:07:27Z</time>
      </trkpt>
      <trkpt lat="48.65535" lon="1.91339">
        <ele>173</ele>
        <time>2025-05-13T08:07:34Z</time>
      </trkpt>
      <trkpt lat="48.65541" lon="1.91349">
        <ele>173</ele>
        <time>2025-05-13T08:07:42Z</time>
      </trkpt>
      <trkpt lat="48.65549" lon="1.91354">
        <ele>173</ele>
        <time>2025-05-13T08:07:49Z</time>
      </trkpt>
      <trkpt lat="48.65557" lon="1.91362">
        <ele>173</ele>
        <time>2025-05-13T08:07:56Z</time>
      </trkpt>
      <trkpt lat="48.65566" lon="1.91371">
        <ele>173</ele>
        <time>2025-05-13T08:08:04Z</time>
      </trkpt>
      <trkpt lat="48.65566" lon="1.91385">
        <ele>173</ele>
        <time>2025-05-13T08:08:20Z</time>
      </trkpt>
      <trkpt lat="48.6556" lon="1.91394">
        <ele>173</ele>
        <time>2025-05-13T08:08:28Z</time>
      </trkpt>
      <trkpt lat="48.65554" lon="1.91406">
        <ele>173</ele>
        <time>2025-05-13T08:08:36Z</time>
      </trkpt>
      <trkpt lat="48.65548" lon="1.91417">
        <ele>173</ele>
        <time>2025-05-13T08:08:43Z</time>
      </trkpt>
      <trkpt lat="48.65547" lon="1.91431">
        <ele>172.5</ele>
        <time>2025-05-13T08:08:53Z</time>
      </trkpt>
      <trkpt lat="48.65539" lon="1.91439">
        <ele>172.2</ele>
        <time>2025-05-13T08:09:24Z</time>
      </trkpt>
      <trkpt lat="48.65534" lon="1.91451">
        <ele>172</ele>
        <time>2025-05-13T08:10:28Z</time>
      </trkpt>
      <trkpt lat="48.65527" lon="1.91459">
        <ele>172</ele>
        <time>2025-05-13T08:10:35Z</time>
      </trkpt>
      <trkpt lat="48.65519" lon="1.9147">
        <ele>172</ele>
        <time>2025-05-13T08:10:42Z</time>
      </trkpt>
      <trkpt lat="48.65513" lon="1.91483">
        <ele>172</ele>
        <time>2025-05-13T08:10:49Z</time>
      </trkpt>
      <trkpt lat="48.65507" lon="1.91493">
        <ele>172</ele>
        <time>2025-05-13T08:10:56Z</time>
      </trkpt>
      <trkpt lat="48.65503" lon="1.91508">
        <ele>172</ele>
        <time>2025-05-13T08:11:03Z</time>
      </trkpt>
      <trkpt lat="48.65497" lon="1.9152">
        <ele>172</ele>
        <time>2025-05-13T08:11:10Z</time>
      </trkpt>
      <trkpt lat="48.65491" lon="1.91532">
        <ele>172</ele>
        <time>2025-05-13T08:11:17Z</time>
      </trkpt>
      <trkpt lat="48.65486" lon="1.91543">
        <ele>171.7</ele>
        <time>2025-05-13T08:11:23Z</time>
      </trkpt>
      <trkpt lat="48.6548" lon="1.91555">
        <ele>171.3</ele>
        <time>2025-05-13T08:11:30Z</time>
      </trkpt>
      <trkpt lat="48.65475" lon="1.91568">
        <ele>171.1</ele>
        <time>2025-05-13T08:11:36Z</time>
      </trkpt>
      <trkpt lat="48.65471" lon="1.9158">
        <ele>171</ele>
        <time>2025-05-13T08:11:42Z</time>
      </trkpt>
      <trkpt lat="48.65464" lon="1.91591">
        <ele>171</ele>
        <time>2025-05-13T08:11:48Z</time>
      </trkpt>
      <trkpt lat="48.65459" lon="1.91602">
        <ele>171</ele>
        <time>2025-05-13T08:11:54Z</time>
      </trkpt>
      <trkpt lat="48.65455" lon="1.91616">
        <ele>171</ele>
        <time>2025-05-13T08:12:01Z</time>
      </trkpt>
      <trkpt lat="48.65451" lon="1.91629">
        <ele>171</ele>
        <time>2025-05-13T08:12:07Z</time>
      </trkpt>
      <trkpt lat="48.65446" lon="1.9164">
        <ele>171</ele>
        <time>2025-05-13T08:12:13Z</time>
      </trkpt>
      <trkpt lat="48.6544" lon="1.91651">
        <ele>171</ele>
        <time>2025-05-13T08:12:19Z</time>
      </trkpt>
      <trkpt lat="48.65435" lon="1.91663">
        <ele>171</ele>
        <time>2025-05-13T08:12:25Z</time>
      </trkpt>
      <trkpt lat="48.65428" lon="1.91674">
        <ele>171</ele>
        <time>2025-05-13T08:12:32Z</time>
      </trkpt>
      <trkpt lat="48.65421" lon="1.91685">
        <ele>171</ele>
        <time>2025-05-13T08:12:42Z</time>
      </trkpt>
      <trkpt lat="48.65417" lon="1.91698">
        <ele>171</ele>
        <time>2025-05-13T08:12:49Z</time>
      </trkpt>
      <trkpt lat="48.65411" lon="1.91711">
        <ele>171</ele>
        <time>2025-05-13T08:12:56Z</time>
      </trkpt>
      <trkpt lat="48.65405" lon="1.91723">
        <ele>171</ele>
        <time>2025-05-13T08:13:03Z</time>
      </trkpt>
      <trkpt lat="48.65401" lon="1.91736">
        <ele>171</ele>
        <time>2025-05-13T08:13:10Z</time>
      </trkpt>
      <trkpt lat="48.65399" lon="1.91751">
        <ele>171</ele>
        <time>2025-05-13T08:13:16Z</time>
      </trkpt>
      <trkpt lat="48.65398" lon="1.91766">
        <ele>170.6</ele>
        <time>2025-05-13T08:13:23Z</time>
      </trkpt>
      <trkpt lat="48.65393" lon="1.91779">
        <ele>170.1</ele>
        <time>2025-05-13T08:13:30Z</time>
      </trkpt>
      <trkpt lat="48.65385" lon="1.91787">
        <ele>170</ele>
        <time>2025-05-13T08:13:37Z</time>
      </trkpt>
      <trkpt lat="48.6538" lon="1.91798">
        <ele>170</ele>
        <time>2025-05-13T08:13:44Z</time>
      </trkpt>
      <trkpt lat="48.65373" lon="1.9181">
        <ele>170</ele>
        <time>2025-05-13T08:13:51Z</time>
      </trkpt>
      <trkpt lat="48.65366" lon="1.91819">
        <ele>170</ele>
        <time>2025-05-13T08:13:58Z</time>
      </trkpt>
      <trkpt lat="48.6536" lon="1.91831">
        <ele>170</ele>
        <time>2025-05-13T08:14:05Z</time>
      </trkpt>
      <trkpt lat="48.65355" lon="1.91843">
        <ele>170</ele>
        <time>2025-05-13T08:14:11Z</time>
      </trkpt>
      <trkpt lat="48.65351" lon="1.91855">
        <ele>170</ele>
        <time>2025-05-13T08:14:17Z</time>
      </trkpt>
      <trkpt lat="48.65345" lon="1.91866">
        <ele>170</ele>
        <time>2025-05-13T08:14:24Z</time>
      </trkpt>
      <trkpt lat="48.6534" lon="1.91878">
        <ele>170</ele>
        <time>2025-05-13T08:14:31Z</time>
      </trkpt>
      <trkpt lat="48.65335" lon="1.91891">
        <ele>170</ele>
        <time>2025-05-13T08:14:38Z</time>
      </trkpt>
      <trkpt lat="48.6533" lon="1.91902">
        <ele>170</ele>
        <time>2025-05-13T08:14:45Z</time>
      </trkpt>
      <trkpt lat="48.65324" lon="1.91914">
        <ele>170</ele>
        <time>2025-05-13T08:14:52Z</time>
      </trkpt>
      <trkpt lat="48.65319" lon="1.91927">
        <ele>170</ele>
        <time>2025-05-13T08:14:59Z</time>
      </trkpt>
      <trkpt lat="48.65313" lon="1.91939">
        <ele>170</ele>
        <time>2025-05-13T08:15:06Z</time>
      </trkpt>
      <trkpt lat="48.65308" lon="1.91952">
        <ele>170</ele>
        <time>2025-05-13T08:15:13Z</time>
      </trkpt>
      <trkpt lat="48.65302" lon="1.91964">
        <ele>170</ele>
        <time>2025-05-13T08:15:20Z</time>
      </trkpt>
      <trkpt lat="48.65297" lon="1.91976">
        <ele>170</ele>
        <time>2025-05-13T08:15:27Z</time>
      </trkpt>
      <trkpt lat="48.65291" lon="1.91989">
        <ele>170.3</ele>
        <time>2025-05-13T08:15:34Z</time>
      </trkpt>
      <trkpt lat="48.65285" lon="1.92001">
        <ele>170.7</ele>
        <time>2025-05-13T08:15:41Z</time>
      </trkpt>
      <trkpt lat="48.6528" lon="1.92012">
        <ele>170.9</ele>
        <time>2025-05-13T08:15:48Z</time>
      </trkpt>
      <trkpt lat="48.65274" lon="1.92025">
        <ele>171</ele>
        <time>2025-05-13T08:15:55Z</time>
      </trkpt>
      <trkpt lat="48.65268" lon="1.92037">
        <ele>171</ele>
        <time>2025-05-13T08:16:02Z</time>
      </trkpt>
      <trkpt lat="48.65262" lon="1.9205">
        <ele>171</ele>
        <time>2025-05-13T08:16:09Z</time>
      </trkpt>
      <trkpt lat="48.65258" lon="1.92062">
        <ele>171</ele>
        <time>2025-05-13T08:16:16Z</time>
      </trkpt>
      <trkpt lat="48.65252" lon="1.92075">
        <ele>171</ele>
        <time>2025-05-13T08:16:23Z</time>
      </trkpt>
      <trkpt lat="48.65247" lon="1.92086">
        <ele>171</ele>
        <time>2025-05-13T08:16:30Z</time>
      </trkpt>
      <trkpt lat="48.65242" lon="1.92098">
        <ele>171</ele>
        <time>2025-05-13T08:16:37Z</time>
      </trkpt>
      <trkpt lat="48.65241" lon="1.92112">
        <ele>171</ele>
        <time>2025-05-13T08:16:43Z</time>
      </trkpt>
      <trkpt lat="48.65234" lon="1.92123">
        <ele>171</ele>
        <time>2025-05-13T08:16:51Z</time>
      </trkpt>
      <trkpt lat="48.65238" lon="1.92139">
        <ele>171</ele>
        <time>2025-05-13T08:16:58Z</time>
      </trkpt>
      <trkpt lat="48.65245" lon="1.92149">
        <ele>171</ele>
        <time>2025-05-13T08:17:05Z</time>
      </trkpt>
      <trkpt lat="48.65253" lon="1.92157">
        <ele>171</ele>
        <time>2025-05-13T08:17:12Z</time>
      </trkpt>
      <trkpt lat="48.65261" lon="1.92165">
        <ele>171</ele>
        <time>2025-05-13T08:17:19Z</time>
      </trkpt>
      <trkpt lat="48.65269" lon="1.92172">
        <ele>171</ele>
        <time>2025-05-13T08:17:26Z</time>
      </trkpt>
      <trkpt lat="48.65276" lon="1.92182">
        <ele>171</ele>
        <time>2025-05-13T08:17:33Z</time>
      </trkpt>
      <trkpt lat="48.65284" lon="1.92192">
        <ele>171.2</ele>
        <time>2025-05-13T08:17:40Z</time>
      </trkpt>
      <trkpt lat="48.65292" lon="1.92203">
        <ele>171.6</ele>
        <time>2025-05-13T08:17:47Z</time>
      </trkpt>
      <trkpt lat="48.653" lon="1.92212">
        <ele>171.9</ele>
        <time>2025-05-13T08:17:54Z</time>
      </trkpt>
      <trkpt lat="48.65308" lon="1.9222">
        <ele>172</ele>
        <time>2025-05-13T08:18:00Z</time>
      </trkpt>
      <trkpt lat="48.65315" lon="1.92229">
        <ele>172</ele>
        <time>2025-05-13T08:18:07Z</time>
      </trkpt>
      <trkpt lat="48.65324" lon="1.92238">
        <ele>172</ele>
        <time>2025-05-13T08:18:14Z</time>
      </trkpt>
      <trkpt lat="48.65332" lon="1.92246">
        <ele>172</ele>
        <time>2025-05-13T08:18:21Z</time>
      </trkpt>
      <trkpt lat="48.6534" lon="1.92256">
        <ele>172</ele>
        <time>2025-05-13T08:18:28Z</time>
      </trkpt>
      <trkpt lat="48.65347" lon="1.92264">
        <ele>172</ele>
        <time>2025-05-13T08:18:34Z</time>
      </trkpt>
      <trkpt lat="48.65356" lon="1.92274">
        <ele>172</ele>
        <time>2025-05-13T08:18:42Z</time>
      </trkpt>
      <trkpt lat="48.65364" lon="1.92283">
        <ele>171.9</ele>
        <time>2025-05-13T08:18:49Z</time>
      </trkpt>
      <trkpt lat="48.65373" lon="1.92288">
        <ele>171.6</ele>
        <time>2025-05-13T08:18:56Z</time>
      </trkpt>
      <trkpt lat="48.65381" lon="1.92296">
        <ele>171.3</ele>
        <time>2025-05-13T08:19:05Z</time>
      </trkpt>
      <trkpt lat="48.65389" lon="1.92306">
        <ele>171</ele>
        <time>2025-05-13T08:19:13Z</time>
      </trkpt>
      <trkpt lat="48.65396" lon="1.92315">
        <ele>170.5</ele>
        <time>2025-05-13T08:19:20Z</time>
      </trkpt>
      <trkpt lat="48.65403" lon="1.92325">
        <ele>170</ele>
        <time>2025-05-13T08:19:27Z</time>
      </trkpt>
      <trkpt lat="48.6541" lon="1.92334">
        <ele>169.5</ele>
        <time>2025-05-13T08:19:34Z</time>
      </trkpt>
      <trkpt lat="48.65419" lon="1.92342">
        <ele>168.8</ele>
        <time>2025-05-13T08:19:41Z</time>
      </trkpt>
      <trkpt lat="48.65427" lon="1.92351">
        <ele>168.3</ele>
        <time>2025-05-13T08:19:47Z</time>
      </trkpt>
      <trkpt lat="48.65436" lon="1.92358">
        <ele>167.6</ele>
        <time>2025-05-13T08:19:54Z</time>
      </trkpt>
      <trkpt lat="48.65443" lon="1.92366">
        <ele>166.9</ele>
        <time>2025-05-13T08:20:01Z</time>
      </trkpt>
      <trkpt lat="48.65451" lon="1.92375">
        <ele>166.1</ele>
        <time>2025-05-13T08:20:08Z</time>
      </trkpt>
      <trkpt lat="48.65459" lon="1.92384">
        <ele>165.6</ele>
        <time>2025-05-13T08:20:14Z</time>
      </trkpt>
      <trkpt lat="48.65465" lon="1.92395">
        <ele>165.1</ele>
        <time>2025-05-13T08:20:21Z</time>
      </trkpt>
      <trkpt lat="48.65471" lon="1.92405">
        <ele>164.4</ele>
        <time>2025-05-13T08:20:29Z</time>
      </trkpt>
      <trkpt lat="48.65479" lon="1.92414">
        <ele>164.6</ele>
        <time>2025-05-13T08:20:36Z</time>
      </trkpt>
      <trkpt lat="48.65487" lon="1.92421">
        <ele>165</ele>
        <time>2025-05-13T08:20:43Z</time>
      </trkpt>
      <trkpt lat="48.65495" lon="1.9243">
        <ele>165.5</ele>
        <time>2025-05-13T08:20:50Z</time>
      </trkpt>
      <trkpt lat="48.65503" lon="1.92436">
        <ele>166.2</ele>
        <time>2025-05-13T08:20:56Z</time>
      </trkpt>
      <trkpt lat="48.65511" lon="1.92445">
        <ele>166.8</ele>
        <time>2025-05-13T08:21:03Z</time>
      </trkpt>
      <trkpt lat="48.65519" lon="1.92453">
        <ele>167.4</ele>
        <time>2025-05-13T08:21:11Z</time>
      </trkpt>
      <trkpt lat="48.65526" lon="1.92462">
        <ele>167.9</ele>
        <time>2025-05-13T08:21:20Z</time>
      </trkpt>
      <trkpt lat="48.65523" lon="1.92475">
        <ele>167.5</ele>
        <time>2025-05-13T08:21:44Z</time>
      </trkpt>
      <trkpt lat="48.65514" lon="1.92478">
        <ele>166.8</ele>
        <time>2025-05-13T08:21:57Z</time>
      </trkpt>
      <trkpt lat="48.65523" lon="1.92486">
        <ele>167.1</ele>
        <time>2025-05-13T08:23:00Z</time>
      </trkpt>
      <trkpt lat="48.6553" lon="1.92476">
        <ele>167.9</ele>
        <time>2025-05-13T08:23:09Z</time>
      </trkpt>
      <trkpt lat="48.65539" lon="1.92474">
        <ele>168</ele>
        <time>2025-05-13T08:25:17Z</time>
      </trkpt>
      <trkpt lat="48.65547" lon="1.9248">
        <ele>167.9</ele>
        <time>2025-05-13T08:25:27Z</time>
      </trkpt>
      <trkpt lat="48.65554" lon="1.92491">
        <ele>168</ele>
        <time>2025-05-13T08:25:37Z</time>
      </trkpt>
      <trkpt lat="48.65562" lon="1.925">
        <ele>168</ele>
        <time>2025-05-13T08:25:45Z</time>
      </trkpt>
      <trkpt lat="48.6557" lon="1.92507">
        <ele>168</ele>
        <time>2025-05-13T08:25:51Z</time>
      </trkpt>
      <trkpt lat="48.65578" lon="1.92514">
        <ele>168</ele>
        <time>2025-05-13T08:25:59Z</time>
      </trkpt>
      <trkpt lat="48.65586" lon="1.92523">
        <ele>168</ele>
        <time>2025-05-13T08:26:07Z</time>
      </trkpt>
      <trkpt lat="48.65593" lon="1.92532">
        <ele>168</ele>
        <time>2025-05-13T08:26:14Z</time>
      </trkpt>
      <trkpt lat="48.65601" lon="1.9254">
        <ele>168</ele>
        <time>2025-05-13T08:26:22Z</time>
      </trkpt>
      <trkpt lat="48.65609" lon="1.9255">
        <ele>168</ele>
        <time>2025-05-13T08:26:29Z</time>
      </trkpt>
      <trkpt lat="48.65614" lon="1.92561">
        <ele>168</ele>
        <time>2025-05-13T08:26:36Z</time>
      </trkpt>
      <trkpt lat="48.65616" lon="1.92576">
        <ele>168</ele>
        <time>2025-05-13T08:26:44Z</time>
      </trkpt>
      <trkpt lat="48.65615" lon="1.9259">
        <ele>168</ele>
        <time>2025-05-13T08:26:52Z</time>
      </trkpt>
      <trkpt lat="48.65617" lon="1.92604">
        <ele>168</ele>
        <time>2025-05-13T08:26:59Z</time>
      </trkpt>
      <trkpt lat="48.65618" lon="1.92619">
        <ele>168</ele>
        <time>2025-05-13T08:27:07Z</time>
      </trkpt>
      <trkpt lat="48.65619" lon="1.92634">
        <ele>168</ele>
        <time>2025-05-13T08:27:15Z</time>
      </trkpt>
      <trkpt lat="48.6562" lon="1.92649">
        <ele>168</ele>
        <time>2025-05-13T08:27:22Z</time>
      </trkpt>
      <trkpt lat="48.65619" lon="1.92663">
        <ele>168</ele>
        <time>2025-05-13T08:27:29Z</time>
      </trkpt>
      <trkpt lat="48.65619" lon="1.92677">
        <ele>168</ele>
        <time>2025-05-13T08:27:36Z</time>
      </trkpt>
      <trkpt lat="48.65621" lon="1.92693">
        <ele>168</ele>
        <time>2025-05-13T08:27:44Z</time>
      </trkpt>
      <trkpt lat="48.65623" lon="1.92706">
        <ele>167.8</ele>
        <time>2025-05-13T08:27:50Z</time>
      </trkpt>
      <trkpt lat="48.65624" lon="1.92721">
        <ele>167.5</ele>
        <time>2025-05-13T08:27:58Z</time>
      </trkpt>
      <trkpt lat="48.65624" lon="1.92735">
        <ele>167.5</ele>
        <time>2025-05-13T08:28:05Z</time>
      </trkpt>
      <trkpt lat="48.65626" lon="1.92749">
        <ele>167.5</ele>
        <time>2025-05-13T08:28:17Z</time>
      </trkpt>
      <trkpt lat="48.65627" lon="1.92765">
        <ele>167.6</ele>
        <time>2025-05-13T08:28:26Z</time>
      </trkpt>
      <trkpt lat="48.65627" lon="1.92779">
        <ele>167.5</ele>
        <time>2025-05-13T08:28:33Z</time>
      </trkpt>
      <trkpt lat="48.65627" lon="1.92793">
        <ele>167.4</ele>
        <time>2025-05-13T08:28:40Z</time>
      </trkpt>
      <trkpt lat="48.65628" lon="1.92807">
        <ele>167.2</ele>
        <time>2025-05-13T08:28:47Z</time>
      </trkpt>
      <trkpt lat="48.65631" lon="1.92821">
        <ele>167.4</ele>
        <time>2025-05-13T08:28:54Z</time>
      </trkpt>
      <trkpt lat="48.65633" lon="1.92836">
        <ele>167.5</ele>
        <time>2025-05-13T08:29:01Z</time>
      </trkpt>
      <trkpt lat="48.65633" lon="1.9285">
        <ele>167.6</ele>
        <time>2025-05-13T08:29:08Z</time>
      </trkpt>
      <trkpt lat="48.65634" lon="1.92864">
        <ele>167.6</ele>
        <time>2025-05-13T08:29:15Z</time>
      </trkpt>
      <trkpt lat="48.65634" lon="1.92879">
        <ele>167</ele>
        <time>2025-05-13T08:29:23Z</time>
      </trkpt>
      <trkpt lat="48.65634" lon="1.92895">
        <ele>166.6</ele>
        <time>2025-05-13T08:29:31Z</time>
      </trkpt>
      <trkpt lat="48.65635" lon="1.9291">
        <ele>166.7</ele>
        <time>2025-05-13T08:29:39Z</time>
      </trkpt>
      <trkpt lat="48.65636" lon="1.92926">
        <ele>166.8</ele>
        <time>2025-05-13T08:29:46Z</time>
      </trkpt>
      <trkpt lat="48.65639" lon="1.92941">
        <ele>167</ele>
        <time>2025-05-13T08:29:53Z</time>
      </trkpt>
      <trkpt lat="48.65641" lon="1.92955">
        <ele>167.1</ele>
        <time>2025-05-13T08:29:59Z</time>
      </trkpt>
      <trkpt lat="48.65643" lon="1.9297">
        <ele>167.1</ele>
        <time>2025-05-13T08:30:06Z</time>
      </trkpt>
      <trkpt lat="48.65644" lon="1.92985">
        <ele>167.2</ele>
        <time>2025-05-13T08:30:13Z</time>
      </trkpt>
      <trkpt lat="48.65644" lon="1.92999">
        <ele>167.2</ele>
        <time>2025-05-13T08:30:20Z</time>
      </trkpt>
      <trkpt lat="48.65638" lon="1.93011">
        <ele>166.8</ele>
        <time>2025-05-13T08:30:28Z</time>
      </trkpt>
      <trkpt lat="48.65631" lon="1.93023">
        <ele>165.4</ele>
        <time>2025-05-13T08:30:35Z</time>
      </trkpt>
      <trkpt lat="48.65628" lon="1.93036">
        <ele>164.5</ele>
        <time>2025-05-13T08:30:44Z</time>
      </trkpt>
      <trkpt lat="48.65625" lon="1.93049">
        <ele>163.6</ele>
        <time>2025-05-13T08:30:53Z</time>
      </trkpt>
      <trkpt lat="48.65621" lon="1.93062">
        <ele>162.5</ele>
        <time>2025-05-13T08:31:02Z</time>
      </trkpt>
      <trkpt lat="48.65622" lon="1.93077">
        <ele>162.2</ele>
        <time>2025-05-13T08:31:09Z</time>
      </trkpt>
      <trkpt lat="48.65625" lon="1.9309">
        <ele>162.2</ele>
        <time>2025-05-13T08:31:17Z</time>
      </trkpt>
      <trkpt lat="48.65629" lon="1.93103">
        <ele>162</ele>
        <time>2025-05-13T08:31:28Z</time>
      </trkpt>
      <trkpt lat="48.65621" lon="1.93113">
        <ele>160.4</ele>
        <time>2025-05-13T08:32:00Z</time>
      </trkpt>
      <trkpt lat="48.65612" lon="1.9311">
        <ele>159.1</ele>
        <time>2025-05-13T08:32:09Z</time>
      </trkpt>
      <trkpt lat="48.65602" lon="1.93113">
        <ele>157</ele>
        <time>2025-05-13T08:32:16Z</time>
      </trkpt>
      <trkpt lat="48.65593" lon="1.93118">
        <ele>154.9</ele>
        <time>2025-05-13T08:32:25Z</time>
      </trkpt>
      <trkpt lat="48.65586" lon="1.93128">
        <ele>153.5</ele>
        <time>2025-05-13T08:32:32Z</time>
      </trkpt>
      <trkpt lat="48.65581" lon="1.9314">
        <ele>152.9</ele>
        <time>2025-05-13T08:32:39Z</time>
      </trkpt>
      <trkpt lat="48.65576" lon="1.93152">
        <ele>152.7</ele>
        <time>2025-05-13T08:32:46Z</time>
      </trkpt>
      <trkpt lat="48.65573" lon="1.93166">
        <ele>152.6</ele>
        <time>2025-05-13T08:32:53Z</time>
      </trkpt>
      <trkpt lat="48.65572" lon="1.93179">
        <ele>152.6</ele>
        <time>2025-05-13T08:32:59Z</time>
      </trkpt>
      <trkpt lat="48.65574" lon="1.93194">
        <ele>152.7</ele>
        <time>2025-05-13T08:33:06Z</time>
      </trkpt>
      <trkpt lat="48.65575" lon="1.93208">
        <ele>152.7</ele>
        <time>2025-05-13T08:33:15Z</time>
      </trkpt>
      <trkpt lat="48.65572" lon="1.93222">
        <ele>152.6</ele>
        <time>2025-05-13T08:33:24Z</time>
      </trkpt>
      <trkpt lat="48.65571" lon="1.93235">
        <ele>152.8</ele>
        <time>2025-05-13T08:33:32Z</time>
      </trkpt>
      <trkpt lat="48.65562" lon="1.9324">
        <ele>152.4</ele>
        <time>2025-05-13T08:33:45Z</time>
      </trkpt>
      <trkpt lat="48.65553" lon="1.93245">
        <ele>152</ele>
        <time>2025-05-13T08:33:54Z</time>
      </trkpt>
      <trkpt lat="48.65544" lon="1.93248">
        <ele>152</ele>
        <time>2025-05-13T08:34:03Z</time>
      </trkpt>
      <trkpt lat="48.65535" lon="1.93252">
        <ele>151.9</ele>
        <time>2025-05-13T08:34:13Z</time>
      </trkpt>
      <trkpt lat="48.65525" lon="1.93254">
        <ele>152.2</ele>
        <time>2025-05-13T08:34:24Z</time>
      </trkpt>
      <trkpt lat="48.65516" lon="1.93251">
        <ele>153.2</ele>
        <time>2025-05-13T08:34:34Z</time>
      </trkpt>
      <trkpt lat="48.65507" lon="1.93248">
        <ele>154.3</ele>
        <time>2025-05-13T08:34:48Z</time>
      </trkpt>
      <trkpt lat="48.655" lon="1.93238">
        <ele>155.4</ele>
        <time>2025-05-13T08:34:59Z</time>
      </trkpt>
      <trkpt lat="48.65492" lon="1.9323">
        <ele>156.4</ele>
        <time>2025-05-13T08:35:08Z</time>
      </trkpt>
      <trkpt lat="48.65483" lon="1.93225">
        <ele>157.2</ele>
        <time>2025-05-13T08:35:16Z</time>
      </trkpt>
      <trkpt lat="48.65473" lon="1.93213">
        <ele>158.3</ele>
        <time>2025-05-13T08:35:32Z</time>
      </trkpt>
      <trkpt lat="48.65465" lon="1.93204">
        <ele>159.5</ele>
        <time>2025-05-13T08:35:36Z</time>
      </trkpt>
      <trkpt lat="48.65456" lon="1.93197">
        <ele>160.7</ele>
        <time>2025-05-13T08:35:46Z</time>
      </trkpt>
      <trkpt lat="48.65448" lon="1.9319">
        <ele>161.6</ele>
        <time>2025-05-13T08:35:56Z</time>
      </trkpt>
      <trkpt lat="48.6544" lon="1.93183">
        <ele>162.3</ele>
        <time>2025-05-13T08:36:06Z</time>
      </trkpt>
      <trkpt lat="48.65433" lon="1.93173">
        <ele>162.9</ele>
        <time>2025-05-13T08:36:18Z</time>
      </trkpt>
      <trkpt lat="48.65425" lon="1.93164">
        <ele>163.5</ele>
        <time>2025-05-13T08:36:29Z</time>
      </trkpt>
      <trkpt lat="48.6542" lon="1.93153">
        <ele>164.2</ele>
        <time>2025-05-13T08:36:41Z</time>
      </trkpt>
      <trkpt lat="48.65412" lon="1.93145">
        <ele>165.2</ele>
        <time>2025-05-13T08:36:53Z</time>
      </trkpt>
      <trkpt lat="48.65404" lon="1.93136">
        <ele>165.9</ele>
        <time>2025-05-13T08:37:01Z</time>
      </trkpt>
      <trkpt lat="48.65396" lon="1.93129">
        <ele>166.5</ele>
        <time>2025-05-13T08:37:08Z</time>
      </trkpt>
      <trkpt lat="48.65388" lon="1.93122">
        <ele>167.1</ele>
        <time>2025-05-13T08:37:17Z</time>
      </trkpt>
      <trkpt lat="48.6538" lon="1.93114">
        <ele>167.7</ele>
        <time>2025-05-13T08:37:28Z</time>
      </trkpt>
      <trkpt lat="48.65372" lon="1.93106">
        <ele>168.2</ele>
        <time>2025-05-13T08:37:37Z</time>
      </trkpt>
      <trkpt lat="48.65364" lon="1.931">
        <ele>168.8</ele>
        <time>2025-05-13T08:37:44Z</time>
      </trkpt>
      <trkpt lat="48.65356" lon="1.93091">
        <ele>169.2</ele>
        <time>2025-05-13T08:37:52Z</time>
      </trkpt>
      <trkpt lat="48.65347" lon="1.93084">
        <ele>169.5</ele>
        <time>2025-05-13T08:37:59Z</time>
      </trkpt>
      <trkpt lat="48.65339" lon="1.93076">
        <ele>169.8</ele>
        <time>2025-05-13T08:38:06Z</time>
      </trkpt>
      <trkpt lat="48.6533" lon="1.93067">
        <ele>170</ele>
        <time>2025-05-13T08:38:13Z</time>
      </trkpt>
      <trkpt lat="48.65322" lon="1.93059">
        <ele>170</ele>
        <time>2025-05-13T08:38:20Z</time>
      </trkpt>
      <trkpt lat="48.65313" lon="1.93052">
        <ele>170</ele>
        <time>2025-05-13T08:38:26Z</time>
      </trkpt>
      <trkpt lat="48.65304" lon="1.93045">
        <ele>170</ele>
        <time>2025-05-13T08:38:33Z</time>
      </trkpt>
      <trkpt lat="48.65295" lon="1.93039">
        <ele>170.2</ele>
        <time>2025-05-13T08:38:40Z</time>
      </trkpt>
      <trkpt lat="48.65286" lon="1.93033">
        <ele>170.1</ele>
        <time>2025-05-13T08:38:51Z</time>
      </trkpt>
      <trkpt lat="48.65278" lon="1.9304">
        <ele>170.4</ele>
        <time>2025-05-13T08:38:58Z</time>
      </trkpt>
      <trkpt lat="48.6527" lon="1.93047">
        <ele>170.8</ele>
        <time>2025-05-13T08:39:05Z</time>
      </trkpt>
      <trkpt lat="48.65266" lon="1.93059">
        <ele>171</ele>
        <time>2025-05-13T08:39:12Z</time>
      </trkpt>
      <trkpt lat="48.65261" lon="1.93073">
        <ele>171</ele>
        <time>2025-05-13T08:39:18Z</time>
      </trkpt>
      <trkpt lat="48.65256" lon="1.93085">
        <ele>171</ele>
        <time>2025-05-13T08:39:24Z</time>
      </trkpt>
      <trkpt lat="48.65249" lon="1.93095">
        <ele>171</ele>
        <time>2025-05-13T08:39:30Z</time>
      </trkpt>
      <trkpt lat="48.65242" lon="1.93105">
        <ele>171</ele>
        <time>2025-05-13T08:39:37Z</time>
      </trkpt>
      <trkpt lat="48.65236" lon="1.93117">
        <ele>171</ele>
        <time>2025-05-13T08:39:44Z</time>
      </trkpt>
      <trkpt lat="48.65231" lon="1.93129">
        <ele>171</ele>
        <time>2025-05-13T08:39:51Z</time>
      </trkpt>
      <trkpt lat="48.65226" lon="1.93142">
        <ele>171.1</ele>
        <time>2025-05-13T08:39:58Z</time>
      </trkpt>
      <trkpt lat="48.65221" lon="1.93153">
        <ele>171.5</ele>
        <time>2025-05-13T08:40:05Z</time>
      </trkpt>
      <trkpt lat="48.65216" lon="1.93166">
        <ele>171.8</ele>
        <time>2025-05-13T08:40:12Z</time>
      </trkpt>
      <trkpt lat="48.65212" lon="1.93179">
        <ele>171.8</ele>
        <time>2025-05-13T08:40:19Z</time>
      </trkpt>
      <trkpt lat="48.65208" lon="1.93193">
        <ele>172</ele>
        <time>2025-05-13T08:40:26Z</time>
      </trkpt>
      <trkpt lat="48.65208" lon="1.93208">
        <ele>172</ele>
        <time>2025-05-13T08:40:33Z</time>
      </trkpt>
      <trkpt lat="48.652" lon="1.93216">
        <ele>172</ele>
        <time>2025-05-13T08:40:41Z</time>
      </trkpt>
      <trkpt lat="48.65191" lon="1.93213">
        <ele>172</ele>
        <time>2025-05-13T08:40:50Z</time>
      </trkpt>
      <trkpt lat="48.65183" lon="1.93205">
        <ele>172</ele>
        <time>2025-05-13T08:40:57Z</time>
      </trkpt>
      <trkpt lat="48.65176" lon="1.93196">
        <ele>172</ele>
        <time>2025-05-13T08:41:04Z</time>
      </trkpt>
      <trkpt lat="48.65168" lon="1.93189">
        <ele>172</ele>
        <time>2025-05-13T08:41:10Z</time>
      </trkpt>
      <trkpt lat="48.6516" lon="1.93178">
        <ele>172</ele>
        <time>2025-05-13T08:41:17Z</time>
      </trkpt>
      <trkpt lat="48.65152" lon="1.9317">
        <ele>172</ele>
        <time>2025-05-13T08:41:23Z</time>
      </trkpt>
      <trkpt lat="48.65144" lon="1.93161">
        <ele>172</ele>
        <time>2025-05-13T08:41:31Z</time>
      </trkpt>
      <trkpt lat="48.65136" lon="1.93152">
        <ele>172</ele>
        <time>2025-05-13T08:41:38Z</time>
      </trkpt>
      <trkpt lat="48.65128" lon="1.93144">
        <ele>172</ele>
        <time>2025-05-13T08:41:45Z</time>
      </trkpt>
      <trkpt lat="48.65121" lon="1.93134">
        <ele>171.9</ele>
        <time>2025-05-13T08:41:53Z</time>
      </trkpt>
      <trkpt lat="48.65114" lon="1.93124">
        <ele>172</ele>
        <time>2025-05-13T08:42:00Z</time>
      </trkpt>
      <trkpt lat="48.65107" lon="1.93115">
        <ele>171.8</ele>
        <time>2025-05-13T08:42:06Z</time>
      </trkpt>
      <trkpt lat="48.65098" lon="1.93108">
        <ele>171.5</ele>
        <time>2025-05-13T08:42:12Z</time>
      </trkpt>
      <trkpt lat="48.6509" lon="1.93099">
        <ele>171.1</ele>
        <time>2025-05-13T08:42:18Z</time>
      </trkpt>
      <trkpt lat="48.65083" lon="1.93089">
        <ele>171</ele>
        <time>2025-05-13T08:42:24Z</time>
      </trkpt>
      <trkpt lat="48.65075" lon="1.93082">
        <ele>171</ele>
        <time>2025-05-13T08:42:30Z</time>
      </trkpt>
      <trkpt lat="48.65067" lon="1.93074">
        <ele>171</ele>
        <time>2025-05-13T08:42:36Z</time>
      </trkpt>
      <trkpt lat="48.65059" lon="1.93066">
        <ele>171</ele>
        <time>2025-05-13T08:42:43Z</time>
      </trkpt>
      <trkpt lat="48.65051" lon="1.93057">
        <ele>170.8</ele>
        <time>2025-05-13T08:42:49Z</time>
      </trkpt>
      <trkpt lat="48.65042" lon="1.93047">
        <ele>170.5</ele>
        <time>2025-05-13T08:42:56Z</time>
      </trkpt>
      <trkpt lat="48.65035" lon="1.93039">
        <ele>170.3</ele>
        <time>2025-05-13T08:43:02Z</time>
      </trkpt>
      <trkpt lat="48.65029" lon="1.93029">
        <ele>170</ele>
        <time>2025-05-13T08:43:08Z</time>
      </trkpt>
      <trkpt lat="48.65021" lon="1.93022">
        <ele>170.2</ele>
        <time>2025-05-13T08:43:14Z</time>
      </trkpt>
      <trkpt lat="48.65014" lon="1.93014">
        <ele>170.2</ele>
        <time>2025-05-13T08:43:20Z</time>
      </trkpt>
      <trkpt lat="48.65006" lon="1.93006">
        <ele>170.2</ele>
        <time>2025-05-13T08:43:26Z</time>
      </trkpt>
      <trkpt lat="48.64999" lon="1.92998">
        <ele>170</ele>
        <time>2025-05-13T08:43:32Z</time>
      </trkpt>
      <trkpt lat="48.64991" lon="1.9299">
        <ele>170</ele>
        <time>2025-05-13T08:43:38Z</time>
      </trkpt>
      <trkpt lat="48.64982" lon="1.92981">
        <ele>170</ele>
        <time>2025-05-13T08:43:45Z</time>
      </trkpt>
      <trkpt lat="48.64974" lon="1.92972">
        <ele>170</ele>
        <time>2025-05-13T08:43:52Z</time>
      </trkpt>
      <trkpt lat="48.64966" lon="1.92963">
        <ele>170</ele>
        <time>2025-05-13T08:43:59Z</time>
      </trkpt>
      <trkpt lat="48.64957" lon="1.92954">
        <ele>170</ele>
        <time>2025-05-13T08:44:06Z</time>
      </trkpt>
      <trkpt lat="48.64949" lon="1.92947">
        <ele>170</ele>
        <time>2025-05-13T08:44:12Z</time>
      </trkpt>
      <trkpt lat="48.64941" lon="1.92939">
        <ele>170</ele>
        <time>2025-05-13T08:44:18Z</time>
      </trkpt>
      <trkpt lat="48.64932" lon="1.92931">
        <ele>170</ele>
        <time>2025-05-13T08:44:25Z</time>
      </trkpt>
      <trkpt lat="48.64926" lon="1.9292">
        <ele>170</ele>
        <time>2025-05-13T08:44:33Z</time>
      </trkpt>
      <trkpt lat="48.64917" lon="1.92913">
        <ele>170</ele>
        <time>2025-05-13T08:44:40Z</time>
      </trkpt>
      <trkpt lat="48.64908" lon="1.92904">
        <ele>170</ele>
        <time>2025-05-13T08:44:47Z</time>
      </trkpt>
      <trkpt lat="48.649" lon="1.92895">
        <ele>170</ele>
        <time>2025-05-13T08:44:54Z</time>
      </trkpt>
      <trkpt lat="48.64893" lon="1.92887">
        <ele>170</ele>
        <time>2025-05-13T08:45:00Z</time>
      </trkpt>
      <trkpt lat="48.64885" lon="1.92877">
        <ele>169.9</ele>
        <time>2025-05-13T08:45:07Z</time>
      </trkpt>
      <trkpt lat="48.64878" lon="1.92869">
        <ele>169.6</ele>
        <time>2025-05-13T08:45:13Z</time>
      </trkpt>
      <trkpt lat="48.6487" lon="1.92861">
        <ele>169.3</ele>
        <time>2025-05-13T08:45:19Z</time>
      </trkpt>
      <trkpt lat="48.64863" lon="1.92852">
        <ele>169.1</ele>
        <time>2025-05-13T08:45:25Z</time>
      </trkpt>
      <trkpt lat="48.64856" lon="1.92844">
        <ele>168.7</ele>
        <time>2025-05-13T08:45:31Z</time>
      </trkpt>
      <trkpt lat="48.64848" lon="1.92834">
        <ele>168.1</ele>
        <time>2025-05-13T08:45:38Z</time>
      </trkpt>
      <trkpt lat="48.64841" lon="1.92825">
        <ele>167.4</ele>
        <time>2025-05-13T08:45:44Z</time>
      </trkpt>
      <trkpt lat="48.64832" lon="1.92816">
        <ele>167</ele>
        <time>2025-05-13T08:45:51Z</time>
      </trkpt>
      <trkpt lat="48.64825" lon="1.92808">
        <ele>166.7</ele>
        <time>2025-05-13T08:45:57Z</time>
      </trkpt>
      <trkpt lat="48.64817" lon="1.92799">
        <ele>166.2</ele>
        <time>2025-05-13T08:46:03Z</time>
      </trkpt>
      <trkpt lat="48.64809" lon="1.92789">
        <ele>165.5</ele>
        <time>2025-05-13T08:46:10Z</time>
      </trkpt>
      <trkpt lat="48.64801" lon="1.92782">
        <ele>165</ele>
        <time>2025-05-13T08:46:16Z</time>
      </trkpt>
      <trkpt lat="48.64794" lon="1.92773">
        <ele>164.5</ele>
        <time>2025-05-13T08:46:22Z</time>
      </trkpt>
      <trkpt lat="48.64786" lon="1.92765">
        <ele>164</ele>
        <time>2025-05-13T08:46:28Z</time>
      </trkpt>
      <trkpt lat="48.64779" lon="1.92756">
        <ele>163.3</ele>
        <time>2025-05-13T08:46:34Z</time>
      </trkpt>
      <trkpt lat="48.64772" lon="1.92748">
        <ele>162.6</ele>
        <time>2025-05-13T08:46:40Z</time>
      </trkpt>
      <trkpt lat="48.64764" lon="1.92739">
        <ele>162</ele>
        <time>2025-05-13T08:46:47Z</time>
      </trkpt>
      <trkpt lat="48.64756" lon="1.9273">
        <ele>161.4</ele>
        <time>2025-05-13T08:46:54Z</time>
      </trkpt>
      <trkpt lat="48.64748" lon="1.92719">
        <ele>161</ele>
        <time>2025-05-13T08:47:01Z</time>
      </trkpt>
      <trkpt lat="48.64739" lon="1.92712">
        <ele>161</ele>
        <time>2025-05-13T08:47:08Z</time>
      </trkpt>
      <trkpt lat="48.64731" lon="1.92703">
        <ele>161</ele>
        <time>2025-05-13T08:47:15Z</time>
      </trkpt>
      <trkpt lat="48.64723" lon="1.92694">
        <ele>161</ele>
        <time>2025-05-13T08:47:22Z</time>
      </trkpt>
      <trkpt lat="48.64715" lon="1.92685">
        <ele>161.1</ele>
        <time>2025-05-13T08:47:29Z</time>
      </trkpt>
      <trkpt lat="48.64707" lon="1.92676">
        <ele>161.4</ele>
        <time>2025-05-13T08:47:36Z</time>
      </trkpt>
      <trkpt lat="48.64699" lon="1.92666">
        <ele>161.9</ele>
        <time>2025-05-13T08:47:43Z</time>
      </trkpt>
      <trkpt lat="48.64692" lon="1.92657">
        <ele>162.5</ele>
        <time>2025-05-13T08:47:50Z</time>
      </trkpt>
      <trkpt lat="48.64684" lon="1.92649">
        <ele>163.2</ele>
        <time>2025-05-13T08:47:57Z</time>
      </trkpt>
      <trkpt lat="48.64676" lon="1.92642">
        <ele>163.6</ele>
        <time>2025-05-13T08:48:03Z</time>
      </trkpt>
      <trkpt lat="48.64668" lon="1.92634">
        <ele>163.9</ele>
        <time>2025-05-13T08:48:10Z</time>
      </trkpt>
      <trkpt lat="48.64659" lon="1.92626">
        <ele>164.3</ele>
        <time>2025-05-13T08:48:17Z</time>
      </trkpt>
      <trkpt lat="48.64651" lon="1.92618">
        <ele>164.6</ele>
        <time>2025-05-13T08:48:24Z</time>
      </trkpt>
      <trkpt lat="48.64643" lon="1.92609">
        <ele>164.9</ele>
        <time>2025-05-13T08:48:32Z</time>
      </trkpt>
      <trkpt lat="48.64635" lon="1.926">
        <ele>165.6</ele>
        <time>2025-05-13T08:48:39Z</time>
      </trkpt>
      <trkpt lat="48.64628" lon="1.9259">
        <ele>166.2</ele>
        <time>2025-05-13T08:48:47Z</time>
      </trkpt>
      <trkpt lat="48.6462" lon="1.92582">
        <ele>166.7</ele>
        <time>2025-05-13T08:48:55Z</time>
      </trkpt>
      <trkpt lat="48.64616" lon="1.9257">
        <ele>166.8</ele>
        <time>2025-05-13T08:50:05Z</time>
      </trkpt>
      <trkpt lat="48.64624" lon="1.9256">
        <ele>166.5</ele>
        <time>2025-05-13T08:51:17Z</time>
      </trkpt>
      <trkpt lat="48.64628" lon="1.92548">
        <ele>166.4</ele>
        <time>2025-05-13T08:51:23Z</time>
      </trkpt>
      <trkpt lat="48.64635" lon="1.92535">
        <ele>166.2</ele>
        <time>2025-05-13T08:51:30Z</time>
      </trkpt>
      <trkpt lat="48.6464" lon="1.92524">
        <ele>166</ele>
        <time>2025-05-13T08:51:36Z</time>
      </trkpt>
      <trkpt lat="48.64645" lon="1.92512">
        <ele>166</ele>
        <time>2025-05-13T08:51:43Z</time>
      </trkpt>
      <trkpt lat="48.64651" lon="1.92499">
        <ele>166</ele>
        <time>2025-05-13T08:51:50Z</time>
      </trkpt>
      <trkpt lat="48.64656" lon="1.92488">
        <ele>166.2</ele>
        <time>2025-05-13T08:51:56Z</time>
      </trkpt>
      <trkpt lat="48.64661" lon="1.92475">
        <ele>166.2</ele>
        <time>2025-05-13T08:52:03Z</time>
      </trkpt>
      <trkpt lat="48.64667" lon="1.92464">
        <ele>166.3</ele>
        <time>2025-05-13T08:52:12Z</time>
      </trkpt>
      <trkpt lat="48.64673" lon="1.92452">
        <ele>166.6</ele>
        <time>2025-05-13T08:52:19Z</time>
      </trkpt>
      <trkpt lat="48.64679" lon="1.92439">
        <ele>166.6</ele>
        <time>2025-05-13T08:52:26Z</time>
      </trkpt>
      <trkpt lat="48.64684" lon="1.92428">
        <ele>166.7</ele>
        <time>2025-05-13T08:52:32Z</time>
      </trkpt>
      <trkpt lat="48.64689" lon="1.92417">
        <ele>167</ele>
        <time>2025-05-13T08:52:38Z</time>
      </trkpt>
      <trkpt lat="48.64695" lon="1.92405">
        <ele>167</ele>
        <time>2025-05-13T08:52:45Z</time>
      </trkpt>
      <trkpt lat="48.647" lon="1.92393">
        <ele>167</ele>
        <time>2025-05-13T08:52:52Z</time>
      </trkpt>
      <trkpt lat="48.64706" lon="1.9238">
        <ele>167.1</ele>
        <time>2025-05-13T08:52:59Z</time>
      </trkpt>
      <trkpt lat="48.64712" lon="1.92367">
        <ele>167.5</ele>
        <time>2025-05-13T08:53:06Z</time>
      </trkpt>
      <trkpt lat="48.64717" lon="1.92354">
        <ele>167.8</ele>
        <time>2025-05-13T08:53:13Z</time>
      </trkpt>
      <trkpt lat="48.64723" lon="1.92341">
        <ele>168</ele>
        <time>2025-05-13T08:53:20Z</time>
      </trkpt>
      <trkpt lat="48.64728" lon="1.9233">
        <ele>168</ele>
        <time>2025-05-13T08:53:26Z</time>
      </trkpt>
      <trkpt lat="48.64734" lon="1.92317">
        <ele>168.2</ele>
        <time>2025-05-13T08:53:33Z</time>
      </trkpt>
      <trkpt lat="48.64739" lon="1.92305">
        <ele>168.6</ele>
        <time>2025-05-13T08:53:39Z</time>
      </trkpt>
      <trkpt lat="48.64744" lon="1.92294">
        <ele>168.9</ele>
        <time>2025-05-13T08:53:45Z</time>
      </trkpt>
      <trkpt lat="48.6475" lon="1.92281">
        <ele>169</ele>
        <time>2025-05-13T08:53:52Z</time>
      </trkpt>
      <trkpt lat="48.64755" lon="1.9227">
        <ele>169.1</ele>
        <time>2025-05-13T08:53:58Z</time>
      </trkpt>
      <trkpt lat="48.6476" lon="1.92258">
        <ele>169.3</ele>
        <time>2025-05-13T08:54:04Z</time>
      </trkpt>
      <trkpt lat="48.64766" lon="1.92245">
        <ele>169.6</ele>
        <time>2025-05-13T08:54:11Z</time>
      </trkpt>
      <trkpt lat="48.64772" lon="1.92233">
        <ele>169.9</ele>
        <time>2025-05-13T08:54:18Z</time>
      </trkpt>
      <trkpt lat="48.64778" lon="1.9222">
        <ele>170</ele>
        <time>2025-05-13T08:54:25Z</time>
      </trkpt>
      <trkpt lat="48.64783" lon="1.92207">
        <ele>170.1</ele>
        <time>2025-05-13T08:54:32Z</time>
      </trkpt>
      <trkpt lat="48.64789" lon="1.92194">
        <ele>170.4</ele>
        <time>2025-05-13T08:54:39Z</time>
      </trkpt>
      <trkpt lat="48.64793" lon="1.92183">
        <ele>170.7</ele>
        <time>2025-05-13T08:54:45Z</time>
      </trkpt>
      <trkpt lat="48.64799" lon="1.9217">
        <ele>171</ele>
        <time>2025-05-13T08:54:52Z</time>
      </trkpt>
      <trkpt lat="48.64804" lon="1.92158">
        <ele>171</ele>
        <time>2025-05-13T08:54:58Z</time>
      </trkpt>
      <trkpt lat="48.64809" lon="1.92146">
        <ele>171</ele>
        <time>2025-05-13T08:55:04Z</time>
      </trkpt>
      <trkpt lat="48.64815" lon="1.92135">
        <ele>171</ele>
        <time>2025-05-13T08:55:10Z</time>
      </trkpt>
      <trkpt lat="48.64819" lon="1.92123">
        <ele>171</ele>
        <time>2025-05-13T08:55:16Z</time>
      </trkpt>
      <trkpt lat="48.64825" lon="1.92109">
        <ele>171</ele>
        <time>2025-05-13T08:55:23Z</time>
      </trkpt>
      <trkpt lat="48.64831" lon="1.92097">
        <ele>171</ele>
        <time>2025-05-13T08:55:30Z</time>
      </trkpt>
      <trkpt lat="48.64826" lon="1.92083">
        <ele>171</ele>
        <time>2025-05-13T08:55:45Z</time>
      </trkpt>
      <trkpt lat="48.64823" lon="1.9207">
        <ele>171</ele>
        <time>2025-05-13T08:55:52Z</time>
      </trkpt>
      <trkpt lat="48.64819" lon="1.92056">
        <ele>171</ele>
        <time>2025-05-13T08:56:00Z</time>
      </trkpt>
      <trkpt lat="48.64816" lon="1.92043">
        <ele>171.5</ele>
        <time>2025-05-13T08:56:07Z</time>
      </trkpt>
      <trkpt lat="48.64811" lon="1.9203">
        <ele>171.9</ele>
        <time>2025-05-13T08:56:14Z</time>
      </trkpt>
      <trkpt lat="48.64806" lon="1.92017">
        <ele>172</ele>
        <time>2025-05-13T08:56:21Z</time>
      </trkpt>
      <trkpt lat="48.64802" lon="1.92004">
        <ele>171.9</ele>
        <time>2025-05-13T08:56:28Z</time>
      </trkpt>
      <trkpt lat="48.64798" lon="1.9199">
        <ele>171.7</ele>
        <time>2025-05-13T08:56:35Z</time>
      </trkpt>
      <trkpt lat="48.64793" lon="1.91977">
        <ele>171.6</ele>
        <time>2025-05-13T08:56:42Z</time>
      </trkpt>
      <trkpt lat="48.6479" lon="1.91965">
        <ele>171.4</ele>
        <time>2025-05-13T08:56:49Z</time>
      </trkpt>
      <trkpt lat="48.64784" lon="1.91952">
        <ele>171.2</ele>
        <time>2025-05-13T08:56:56Z</time>
      </trkpt>
      <trkpt lat="48.6478" lon="1.9194">
        <ele>171.2</ele>
        <time>2025-05-13T08:57:02Z</time>
      </trkpt>
      <trkpt lat="48.64775" lon="1.91926">
        <ele>171.6</ele>
        <time>2025-05-13T08:57:09Z</time>
      </trkpt>
      <trkpt lat="48.64771" lon="1.91913">
        <ele>171.8</ele>
        <time>2025-05-13T08:57:15Z</time>
      </trkpt>
      <trkpt lat="48.64767" lon="1.91899">
        <ele>171.6</ele>
        <time>2025-05-13T08:57:22Z</time>
      </trkpt>
      <trkpt lat="48.64762" lon="1.91887">
        <ele>171.4</ele>
        <time>2025-05-13T08:57:28Z</time>
      </trkpt>
      <trkpt lat="48.64756" lon="1.91876">
        <ele>171.2</ele>
        <time>2025-05-13T08:57:34Z</time>
      </trkpt>
      <trkpt lat="48.64753" lon="1.91862">
        <ele>171.1</ele>
        <time>2025-05-13T08:57:41Z</time>
      </trkpt>
      <trkpt lat="48.64748" lon="1.91849">
        <ele>171</ele>
        <time>2025-05-13T08:57:48Z</time>
      </trkpt>
      <trkpt lat="48.64744" lon="1.91836">
        <ele>171</ele>
        <time>2025-05-13T08:57:55Z</time>
      </trkpt>
      <trkpt lat="48.64739" lon="1.91824">
        <ele>171</ele>
        <time>2025-05-13T08:58:01Z</time>
      </trkpt>
      <trkpt lat="48.64735" lon="1.9181">
        <ele>171</ele>
        <time>2025-05-13T08:58:08Z</time>
      </trkpt>
      <trkpt lat="48.6473" lon="1.91799">
        <ele>171</ele>
        <time>2025-05-13T08:58:14Z</time>
      </trkpt>
      <trkpt lat="48.64725" lon="1.91785">
        <ele>171</ele>
        <time>2025-05-13T08:58:21Z</time>
      </trkpt>
      <trkpt lat="48.64719" lon="1.91772">
        <ele>171</ele>
        <time>2025-05-13T08:58:28Z</time>
      </trkpt>
      <trkpt lat="48.64714" lon="1.91758">
        <ele>171</ele>
        <time>2025-05-13T08:58:35Z</time>
      </trkpt>
      <trkpt lat="48.6471" lon="1.91744">
        <ele>171</ele>
        <time>2025-05-13T08:58:42Z</time>
      </trkpt>
      <trkpt lat="48.64706" lon="1.9173">
        <ele>171</ele>
        <time>2025-05-13T08:58:49Z</time>
      </trkpt>
      <trkpt lat="48.64701" lon="1.91716">
        <ele>171</ele>
        <time>2025-05-13T08:58:56Z</time>
      </trkpt>
      <trkpt lat="48.64697" lon="1.91703">
        <ele>171</ele>
        <time>2025-05-13T08:59:03Z</time>
      </trkpt>
      <trkpt lat="48.64692" lon="1.9169">
        <ele>171</ele>
        <time>2025-05-13T08:59:10Z</time>
      </trkpt>
      <trkpt lat="48.64687" lon="1.91677">
        <ele>171</ele>
        <time>2025-05-13T08:59:17Z</time>
      </trkpt>
      <trkpt lat="48.64682" lon="1.91663">
        <ele>171</ele>
        <time>2025-05-13T08:59:24Z</time>
      </trkpt>
      <trkpt lat="48.64678" lon="1.91649">
        <ele>171</ele>
        <time>2025-05-13T08:59:31Z</time>
      </trkpt>
      <trkpt lat="48.64673" lon="1.91637">
        <ele>171</ele>
        <time>2025-05-13T08:59:38Z</time>
      </trkpt>
      <trkpt lat="48.64669" lon="1.91623">
        <ele>171</ele>
        <time>2025-05-13T08:59:45Z</time>
      </trkpt>
      <trkpt lat="48.64665" lon="1.9161">
        <ele>171</ele>
        <time>2025-05-13T08:59:52Z</time>
      </trkpt>
      <trkpt lat="48.64659" lon="1.91597">
        <ele>171</ele>
        <time>2025-05-13T08:59:59Z</time>
      </trkpt>
      <trkpt lat="48.64655" lon="1.91583">
        <ele>171</ele>
        <time>2025-05-13T09:00:06Z</time>
      </trkpt>
      <trkpt lat="48.6465" lon="1.9157">
        <ele>171</ele>
        <time>2025-05-13T09:00:13Z</time>
      </trkpt>
      <trkpt lat="48.64646" lon="1.91556">
        <ele>171</ele>
        <time>2025-05-13T09:00:20Z</time>
      </trkpt>
      <trkpt lat="48.64641" lon="1.91542">
        <ele>170.5</ele>
        <time>2025-05-13T09:00:27Z</time>
      </trkpt>
      <trkpt lat="48.64638" lon="1.91529">
        <ele>170</ele>
        <time>2025-05-13T09:00:34Z</time>
      </trkpt>
      <trkpt lat="48.64634" lon="1.91516">
        <ele>170</ele>
        <time>2025-05-13T09:00:41Z</time>
      </trkpt>
      <trkpt lat="48.6463" lon="1.91503">
        <ele>170</ele>
        <time>2025-05-13T09:00:48Z</time>
      </trkpt>
      <trkpt lat="48.64626" lon="1.9149">
        <ele>169.6</ele>
        <time>2025-05-13T09:00:55Z</time>
      </trkpt>
      <trkpt lat="48.64622" lon="1.91476">
        <ele>169.1</ele>
        <time>2025-05-13T09:01:02Z</time>
      </trkpt>
      <trkpt lat="48.64617" lon="1.91464">
        <ele>169.2</ele>
        <time>2025-05-13T09:01:09Z</time>
      </trkpt>
      <trkpt lat="48.64612" lon="1.9145">
        <ele>169.7</ele>
        <time>2025-05-13T09:01:17Z</time>
      </trkpt>
      <trkpt lat="48.64609" lon="1.91438">
        <ele>169.9</ele>
        <time>2025-05-13T09:01:24Z</time>
      </trkpt>
      <trkpt lat="48.64604" lon="1.91424">
        <ele>169.9</ele>
        <time>2025-05-13T09:01:32Z</time>
      </trkpt>
      <trkpt lat="48.64599" lon="1.91413">
        <ele>170</ele>
        <time>2025-05-13T09:01:39Z</time>
      </trkpt>
      <trkpt lat="48.64595" lon="1.91399">
        <ele>170</ele>
        <time>2025-05-13T09:01:47Z</time>
      </trkpt>
      <trkpt lat="48.6459" lon="1.91386">
        <ele>170</ele>
        <time>2025-05-13T09:01:54Z</time>
      </trkpt>
      <trkpt lat="48.64586" lon="1.91374">
        <ele>170</ele>
        <time>2025-05-13T09:02:01Z</time>
      </trkpt>
      <trkpt lat="48.6458" lon="1.91364">
        <ele>170.1</ele>
        <time>2025-05-13T09:02:09Z</time>
      </trkpt>
      <trkpt lat="48.64576" lon="1.91351">
        <ele>170.5</ele>
        <time>2025-05-13T09:02:42Z</time>
      </trkpt>
      <trkpt lat="48.64573" lon="1.91339">
        <ele>170.9</ele>
        <time>2025-05-13T09:02:51Z</time>
      </trkpt>
      <trkpt lat="48.6457" lon="1.91324">
        <ele>171</ele>
        <time>2025-05-13T09:02:59Z</time>
      </trkpt>
      <trkpt lat="48.64566" lon="1.9131">
        <ele>171</ele>
        <time>2025-05-13T09:03:07Z</time>
      </trkpt>
      <trkpt lat="48.64561" lon="1.91298">
        <ele>171.1</ele>
        <time>2025-05-13T09:03:14Z</time>
      </trkpt>
      <trkpt lat="48.64557" lon="1.91286">
        <ele>171</ele>
        <time>2025-05-13T09:03:21Z</time>
      </trkpt>
      <trkpt lat="48.64553" lon="1.91274">
        <ele>171.1</ele>
        <time>2025-05-13T09:03:28Z</time>
      </trkpt>
      <trkpt lat="48.64549" lon="1.91261">
        <ele>171.5</ele>
        <time>2025-05-13T09:03:35Z</time>
      </trkpt>
      <trkpt lat="48.64543" lon="1.91249">
        <ele>171.6</ele>
        <time>2025-05-13T09:03:42Z</time>
      </trkpt>
      <trkpt lat="48.64536" lon="1.91239">
        <ele>171.3</ele>
        <time>2025-05-13T09:03:48Z</time>
      </trkpt>
      <trkpt lat="48.64536" lon="1.91225">
        <ele>171.3</ele>
        <time>2025-05-13T09:03:59Z</time>
      </trkpt>
      <trkpt lat="48.64537" lon="1.91211">
        <ele>171.6</ele>
        <time>2025-05-13T09:04:10Z</time>
      </trkpt>
      <trkpt lat="48.64537" lon="1.91196">
        <ele>172</ele>
        <time>2025-05-13T09:04:23Z</time>
      </trkpt>
      <trkpt lat="48.64536" lon="1.91182">
        <ele>172</ele>
        <time>2025-05-13T09:04:33Z</time>
      </trkpt>
      <trkpt lat="48.64539" lon="1.91168">
        <ele>172</ele>
        <time>2025-05-13T09:04:44Z</time>
      </trkpt>
      <trkpt lat="48.64539" lon="1.91153">
        <ele>172</ele>
        <time>2025-05-13T09:04:55Z</time>
      </trkpt>
      <trkpt lat="48.64541" lon="1.91139">
        <ele>172</ele>
        <time>2025-05-13T09:05:03Z</time>
      </trkpt>
      <trkpt lat="48.64542" lon="1.91123">
        <ele>172</ele>
        <time>2025-05-13T09:05:11Z</time>
      </trkpt>
      <trkpt lat="48.64543" lon="1.91108">
        <ele>172</ele>
        <time>2025-05-13T09:05:19Z</time>
      </trkpt>
      <trkpt lat="48.64546" lon="1.91094">
        <ele>172</ele>
        <time>2025-05-13T09:05:26Z</time>
      </trkpt>
      <trkpt lat="48.64546" lon="1.91081">
        <ele>172</ele>
        <time>2025-05-13T09:05:33Z</time>
      </trkpt>
      <trkpt lat="48.64546" lon="1.91066">
        <ele>172</ele>
        <time>2025-05-13T09:05:41Z</time>
      </trkpt>
      <trkpt lat="48.64547" lon="1.91052">
        <ele>172</ele>
        <time>2025-05-13T09:05:49Z</time>
      </trkpt>
      <trkpt lat="48.64547" lon="1.91038">
        <ele>172</ele>
        <time>2025-05-13T09:05:57Z</time>
      </trkpt>
      <trkpt lat="48.64548" lon="1.91024">
        <ele>172</ele>
        <time>2025-05-13T09:06:06Z</time>
      </trkpt>
      <trkpt lat="48.64547" lon="1.9101">
        <ele>172</ele>
        <time>2025-05-13T09:06:14Z</time>
      </trkpt>
      <trkpt lat="48.64547" lon="1.90996">
        <ele>172</ele>
        <time>2025-05-13T09:06:22Z</time>
      </trkpt>
      <trkpt lat="48.64548" lon="1.90982">
        <ele>172</ele>
        <time>2025-05-13T09:06:30Z</time>
      </trkpt>
      <trkpt lat="48.64553" lon="1.90969">
        <ele>172</ele>
        <time>2025-05-13T09:06:40Z</time>
      </trkpt>
      <trkpt lat="48.64554" lon="1.90955">
        <ele>172</ele>
        <time>2025-05-13T09:06:50Z</time>
      </trkpt>
      <trkpt lat="48.64555" lon="1.90941">
        <ele>172</ele>
        <time>2025-05-13T09:06:58Z</time>
      </trkpt>
      <trkpt lat="48.64553" lon="1.90927">
        <ele>172</ele>
        <time>2025-05-13T09:07:09Z</time>
      </trkpt>
      <trkpt lat="48.64557" lon="1.90914">
        <ele>172</ele>
        <time>2025-05-13T09:07:18Z</time>
      </trkpt>
      <trkpt lat="48.64558" lon="1.909">
        <ele>172</ele>
        <time>2025-05-13T09:07:27Z</time>
      </trkpt>
      <trkpt lat="48.64559" lon="1.90885">
        <ele>172</ele>
        <time>2025-05-13T09:07:35Z</time>
      </trkpt>
      <trkpt lat="48.64561" lon="1.9087">
        <ele>172</ele>
        <time>2025-05-13T09:07:43Z</time>
      </trkpt>
      <trkpt lat="48.64561" lon="1.90855">
        <ele>172</ele>
        <time>2025-05-13T09:07:51Z</time>
      </trkpt>
      <trkpt lat="48.64563" lon="1.90841">
        <ele>172</ele>
        <time>2025-05-13T09:08:03Z</time>
      </trkpt>
      <trkpt lat="48.64556" lon="1.90832">
        <ele>172</ele>
        <time>2025-05-13T09:08:12Z</time>
      </trkpt>
      <trkpt lat="48.64548" lon="1.90824">
        <ele>171.7</ele>
        <time>2025-05-13T09:08:54Z</time>
      </trkpt>
      <trkpt lat="48.64541" lon="1.90813">
        <ele>171.5</ele>
        <time>2025-05-13T09:09:03Z</time>
      </trkpt>
      <trkpt lat="48.64534" lon="1.90802">
        <ele>171.2</ele>
        <time>2025-05-13T09:09:10Z</time>
      </trkpt>
      <trkpt lat="48.64526" lon="1.90795">
        <ele>171</ele>
        <time>2025-05-13T09:09:16Z</time>
      </trkpt>
      <trkpt lat="48.64518" lon="1.90787">
        <ele>171</ele>
        <time>2025-05-13T09:09:23Z</time>
      </trkpt>
      <trkpt lat="48.6451" lon="1.90778">
        <ele>171</ele>
        <time>2025-05-13T09:09:30Z</time>
      </trkpt>
      <trkpt lat="48.64502" lon="1.90767">
        <ele>171</ele>
        <time>2025-05-13T09:09:38Z</time>
      </trkpt>
      <trkpt lat="48.64494" lon="1.90758">
        <ele>171.2</ele>
        <time>2025-05-13T09:09:45Z</time>
      </trkpt>
      <trkpt lat="48.64487" lon="1.9075">
        <ele>171.5</ele>
        <time>2025-05-13T09:09:51Z</time>
      </trkpt>
      <trkpt lat="48.6448" lon="1.90742">
        <ele>171.8</ele>
        <time>2025-05-13T09:09:57Z</time>
      </trkpt>
      <trkpt lat="48.64471" lon="1.90738">
        <ele>172</ele>
        <time>2025-05-13T09:10:03Z</time>
      </trkpt>
      <trkpt lat="48.64464" lon="1.90728">
        <ele>172</ele>
        <time>2025-05-13T09:10:12Z</time>
      </trkpt>
      <trkpt lat="48.64459" lon="1.90716">
        <ele>172</ele>
        <time>2025-05-13T09:10:21Z</time>
      </trkpt>
      <trkpt lat="48.64452" lon="1.90705">
        <ele>172</ele>
        <time>2025-05-13T09:10:29Z</time>
      </trkpt>
      <trkpt lat="48.64445" lon="1.90695">
        <ele>172</ele>
        <time>2025-05-13T09:10:36Z</time>
      </trkpt>
      <trkpt lat="48.64436" lon="1.90694">
        <ele>172</ele>
        <time>2025-05-13T09:10:41Z</time>
      </trkpt>
      <trkpt lat="48.64431" lon="1.90683">
        <ele>172.2</ele>
        <time>2025-05-13T09:10:48Z</time>
      </trkpt>
      <trkpt lat="48.64423" lon="1.90672">
        <ele>172.6</ele>
        <time>2025-05-13T09:10:55Z</time>
      </trkpt>
      <trkpt lat="48.64416" lon="1.90664">
        <ele>173</ele>
        <time>2025-05-13T09:11:02Z</time>
      </trkpt>
      <trkpt lat="48.64408" lon="1.90655">
        <ele>173</ele>
        <time>2025-05-13T09:11:09Z</time>
      </trkpt>
      <trkpt lat="48.64401" lon="1.90646">
        <ele>173</ele>
        <time>2025-05-13T09:11:18Z</time>
      </trkpt>
      <trkpt lat="48.64392" lon="1.90642">
        <ele>173</ele>
        <time>2025-05-13T09:11:27Z</time>
      </trkpt>
      <trkpt lat="48.64384" lon="1.90633">
        <ele>173</ele>
        <time>2025-05-13T09:11:35Z</time>
      </trkpt>
      <trkpt lat="48.64377" lon="1.90625">
        <ele>173</ele>
        <time>2025-05-13T09:11:42Z</time>
      </trkpt>
      <trkpt lat="48.64369" lon="1.90616">
        <ele>173</ele>
        <time>2025-05-13T09:11:52Z</time>
      </trkpt>
      <trkpt lat="48.64362" lon="1.90607">
        <ele>173</ele>
        <time>2025-05-13T09:12:02Z</time>
      </trkpt>
      <trkpt lat="48.6436" lon="1.90594">
        <ele>173</ele>
        <time>2025-05-13T09:12:12Z</time>
      </trkpt>
      <trkpt lat="48.64366" lon="1.90584">
        <ele>173</ele>
        <time>2025-05-13T09:12:21Z</time>
      </trkpt>
      <trkpt lat="48.64371" lon="1.90571">
        <ele>173</ele>
        <time>2025-05-13T09:12:29Z</time>
      </trkpt>
      <trkpt lat="48.64364" lon="1.90561">
        <ele>173</ele>
        <time>2025-05-13T09:12:36Z</time>
      </trkpt>
      <trkpt lat="48.64373" lon="1.90563">
        <ele>173</ele>
        <time>2025-05-13T09:12:56Z</time>
      </trkpt>
      <trkpt lat="48.64378" lon="1.90551">
        <ele>173</ele>
        <time>2025-05-13T09:13:03Z</time>
      </trkpt>
      <trkpt lat="48.64385" lon="1.90541">
        <ele>173</ele>
        <time>2025-05-13T09:13:17Z</time>
      </trkpt>
      <trkpt lat="48.64391" lon="1.90531">
        <ele>173</ele>
        <time>2025-05-13T09:13:28Z</time>
      </trkpt>
      <trkpt lat="48.64397" lon="1.90519">
        <ele>173</ele>
        <time>2025-05-13T09:13:36Z</time>
      </trkpt>
      <trkpt lat="48.64402" lon="1.90507">
        <ele>173</ele>
        <time>2025-05-13T09:13:43Z</time>
      </trkpt>
      <trkpt lat="48.64408" lon="1.90494">
        <ele>173</ele>
        <time>2025-05-13T09:13:50Z</time>
      </trkpt>
      <trkpt lat="48.64414" lon="1.90482">
        <ele>173</ele>
        <time>2025-05-13T09:13:57Z</time>
      </trkpt>
      <trkpt lat="48.6442" lon="1.90469">
        <ele>173</ele>
        <time>2025-05-13T09:14:04Z</time>
      </trkpt>
      <trkpt lat="48.64426" lon="1.90457">
        <ele>173</ele>
        <time>2025-05-13T09:14:11Z</time>
      </trkpt>
      <trkpt lat="48.64431" lon="1.90445">
        <ele>173</ele>
        <time>2025-05-13T09:14:17Z</time>
      </trkpt>
      <trkpt lat="48.64437" lon="1.90432">
        <ele>173</ele>
        <time>2025-05-13T09:14:24Z</time>
      </trkpt>
      <trkpt lat="48.64444" lon="1.90421">
        <ele>173</ele>
        <time>2025-05-13T09:14:31Z</time>
      </trkpt>
      <trkpt lat="48.64449" lon="1.9041">
        <ele>172.8</ele>
        <time>2025-05-13T09:14:37Z</time>
      </trkpt>
      <trkpt lat="48.64456" lon="1.90398">
        <ele>172.6</ele>
        <time>2025-05-13T09:14:44Z</time>
      </trkpt>
      <trkpt lat="48.64462" lon="1.90386">
        <ele>172.4</ele>
        <time>2025-05-13T09:14:51Z</time>
      </trkpt>
      <trkpt lat="48.64469" lon="1.90375">
        <ele>172.1</ele>
        <time>2025-05-13T09:14:58Z</time>
      </trkpt>
      <trkpt lat="48.64473" lon="1.90362">
        <ele>172</ele>
        <time>2025-05-13T09:15:05Z</time>
      </trkpt>
      <trkpt lat="48.64478" lon="1.9035">
        <ele>172.4</ele>
        <time>2025-05-13T09:15:12Z</time>
      </trkpt>
      <trkpt lat="48.64482" lon="1.90337">
        <ele>172.9</ele>
        <time>2025-05-13T09:15:19Z</time>
      </trkpt>
      <trkpt lat="48.64488" lon="1.90325">
        <ele>172.8</ele>
        <time>2025-05-13T09:15:26Z</time>
      </trkpt>
      <trkpt lat="48.64494" lon="1.90314">
        <ele>172.4</ele>
        <time>2025-05-13T09:15:33Z</time>
      </trkpt>
      <trkpt lat="48.64501" lon="1.90302">
        <ele>172</ele>
        <time>2025-05-13T09:15:40Z</time>
      </trkpt>
      <trkpt lat="48.64508" lon="1.90292">
        <ele>172.1</ele>
        <time>2025-05-13T09:15:48Z</time>
      </trkpt>
      <trkpt lat="48.64511" lon="1.90278">
        <ele>172.4</ele>
        <time>2025-05-13T09:15:56Z</time>
      </trkpt>
      <trkpt lat="48.64517" lon="1.90268">
        <ele>172.8</ele>
        <time>2025-05-13T09:16:04Z</time>
      </trkpt>
      <trkpt lat="48.64522" lon="1.90256">
        <ele>173</ele>
        <time>2025-05-13T09:16:11Z</time>
      </trkpt>
      <trkpt lat="48.64525" lon="1.90241">
        <ele>173</ele>
        <time>2025-05-13T09:16:19Z</time>
      </trkpt>
      <trkpt lat="48.64529" lon="1.90228">
        <ele>173</ele>
        <time>2025-05-13T09:16:27Z</time>
      </trkpt>
      <trkpt lat="48.64537" lon="1.90217">
        <ele>173</ele>
        <time>2025-05-13T09:16:36Z</time>
      </trkpt>
      <trkpt lat="48.64544" lon="1.90208">
        <ele>173</ele>
        <time>2025-05-13T09:16:44Z</time>
      </trkpt>
      <trkpt lat="48.6455" lon="1.90198">
        <ele>173</ele>
        <time>2025-05-13T09:16:51Z</time>
      </trkpt>
      <trkpt lat="48.64556" lon="1.90188">
        <ele>173</ele>
        <time>2025-05-13T09:16:57Z</time>
      </trkpt>
      <trkpt lat="48.64561" lon="1.90175">
        <ele>173</ele>
        <time>2025-05-13T09:17:04Z</time>
      </trkpt>
      <trkpt lat="48.64567" lon="1.90163">
        <ele>173</ele>
        <time>2025-05-13T09:17:11Z</time>
      </trkpt>
      <trkpt lat="48.64573" lon="1.9015">
        <ele>173</ele>
        <time>2025-05-13T09:17:18Z</time>
      </trkpt>
      <trkpt lat="48.64579" lon="1.90137">
        <ele>173</ele>
        <time>2025-05-13T09:17:25Z</time>
      </trkpt>
      <trkpt lat="48.64585" lon="1.90127">
        <ele>173</ele>
        <time>2025-05-13T09:17:32Z</time>
      </trkpt>
      <trkpt lat="48.64591" lon="1.90116">
        <ele>173</ele>
        <time>2025-05-13T09:17:38Z</time>
      </trkpt>
      <trkpt lat="48.64597" lon="1.90104">
        <ele>173</ele>
        <time>2025-05-13T09:17:45Z</time>
      </trkpt>
      <trkpt lat="48.64604" lon="1.90093">
        <ele>173</ele>
        <time>2025-05-13T09:17:52Z</time>
      </trkpt>
      <trkpt lat="48.64609" lon="1.90081">
        <ele>172.9</ele>
        <time>2025-05-13T09:17:58Z</time>
      </trkpt>
      <trkpt lat="48.64613" lon="1.90069">
        <ele>172.5</ele>
        <time>2025-05-13T09:18:04Z</time>
      </trkpt>
      <trkpt lat="48.64618" lon="1.90057">
        <ele>172</ele>
        <time>2025-05-13T09:18:11Z</time>
      </trkpt>
      <trkpt lat="48.64625" lon="1.90045">
        <ele>172</ele>
        <time>2025-05-13T09:18:18Z</time>
      </trkpt>
      <trkpt lat="48.6463" lon="1.90032">
        <ele>172</ele>
        <time>2025-05-13T09:18:25Z</time>
      </trkpt>
      <trkpt lat="48.64636" lon="1.90021">
        <ele>172</ele>
        <time>2025-05-13T09:18:32Z</time>
      </trkpt>
      <trkpt lat="48.64642" lon="1.9001">
        <ele>172</ele>
        <time>2025-05-13T09:18:39Z</time>
      </trkpt>
      <trkpt lat="48.64648" lon="1.89997">
        <ele>172</ele>
        <time>2025-05-13T09:18:46Z</time>
      </trkpt>
      <trkpt lat="48.64653" lon="1.89984">
        <ele>172</ele>
        <time>2025-05-13T09:18:53Z</time>
      </trkpt>
      <trkpt lat="48.64659" lon="1.89971">
        <ele>172</ele>
        <time>2025-05-13T09:19:00Z</time>
      </trkpt>
      <trkpt lat="48.64665" lon="1.89959">
        <ele>172</ele>
        <time>2025-05-13T09:19:07Z</time>
      </trkpt>
      <trkpt lat="48.64671" lon="1.89947">
        <ele>172</ele>
        <time>2025-05-13T09:19:14Z</time>
      </trkpt>
      <trkpt lat="48.64677" lon="1.89934">
        <ele>172</ele>
        <time>2025-05-13T09:19:22Z</time>
      </trkpt>
      <trkpt lat="48.64683" lon="1.89923">
        <ele>172</ele>
        <time>2025-05-13T09:19:29Z</time>
      </trkpt>
      <trkpt lat="48.64688" lon="1.8991">
        <ele>172</ele>
        <time>2025-05-13T09:19:36Z</time>
      </trkpt>
      <trkpt lat="48.64693" lon="1.89898">
        <ele>172</ele>
        <time>2025-05-13T09:19:42Z</time>
      </trkpt>
      <trkpt lat="48.647" lon="1.89887">
        <ele>172</ele>
        <time>2025-05-13T09:19:49Z</time>
      </trkpt>
      <trkpt lat="48.64704" lon="1.89873">
        <ele>172</ele>
        <time>2025-05-13T09:19:56Z</time>
      </trkpt>
      <trkpt lat="48.64709" lon="1.89863">
        <ele>172</ele>
        <time>2025-05-13T09:20:03Z</time>
      </trkpt>
      <trkpt lat="48.64716" lon="1.89852">
        <ele>172</ele>
        <time>2025-05-13T09:20:17Z</time>
      </trkpt>
      <trkpt lat="48.64721" lon="1.89838">
        <ele>172</ele>
        <time>2025-05-13T09:20:25Z</time>
      </trkpt>
      <trkpt lat="48.64725" lon="1.89826">
        <ele>172</ele>
        <time>2025-05-13T09:20:33Z</time>
      </trkpt>
      <trkpt lat="48.64731" lon="1.89815">
        <ele>172</ele>
        <time>2025-05-13T09:20:40Z</time>
      </trkpt>
      <trkpt lat="48.64737" lon="1.89803">
        <ele>172</ele>
        <time>2025-05-13T09:20:48Z</time>
      </trkpt>
      <trkpt lat="48.64744" lon="1.89794">
        <ele>172</ele>
        <time>2025-05-13T09:20:55Z</time>
      </trkpt>
      <trkpt lat="48.64749" lon="1.89783">
        <ele>172</ele>
        <time>2025-05-13T09:21:04Z</time>
      </trkpt>
      <trkpt lat="48.64754" lon="1.89771">
        <ele>172</ele>
        <time>2025-05-13T09:21:12Z</time>
      </trkpt>
      <trkpt lat="48.6476" lon="1.89759">
        <ele>172</ele>
        <time>2025-05-13T09:21:20Z</time>
      </trkpt>
      <trkpt lat="48.64766" lon="1.89749">
        <ele>172</ele>
        <time>2025-05-13T09:21:28Z</time>
      </trkpt>
      <trkpt lat="48.64771" lon="1.89737">
        <ele>172</ele>
        <time>2025-05-13T09:21:36Z</time>
      </trkpt>
      <trkpt lat="48.64777" lon="1.89725">
        <ele>172</ele>
        <time>2025-05-13T09:21:44Z</time>
      </trkpt>
      <trkpt lat="48.64784" lon="1.89715">
        <ele>172</ele>
        <time>2025-05-13T09:21:52Z</time>
      </trkpt>
      <trkpt lat="48.64789" lon="1.89704">
        <ele>172</ele>
        <time>2025-05-13T09:21:59Z</time>
      </trkpt>
      <trkpt lat="48.64793" lon="1.89691">
        <ele>171.9</ele>
        <time>2025-05-13T09:22:06Z</time>
      </trkpt>
      <trkpt lat="48.64799" lon="1.8968">
        <ele>171.6</ele>
        <time>2025-05-13T09:22:13Z</time>
      </trkpt>
      <trkpt lat="48.64805" lon="1.89668">
        <ele>171.1</ele>
        <time>2025-05-13T09:22:20Z</time>
      </trkpt>
      <trkpt lat="48.64811" lon="1.89655">
        <ele>171.5</ele>
        <time>2025-05-13T09:22:27Z</time>
      </trkpt>
      <trkpt lat="48.64815" lon="1.89641">
        <ele>171.9</ele>
        <time>2025-05-13T09:22:34Z</time>
      </trkpt>
      <trkpt lat="48.64821" lon="1.89629">
        <ele>171.6</ele>
        <time>2025-05-13T09:22:41Z</time>
      </trkpt>
      <trkpt lat="48.64826" lon="1.89616">
        <ele>171.2</ele>
        <time>2025-05-13T09:22:48Z</time>
      </trkpt>
      <trkpt lat="48.64832" lon="1.89604">
        <ele>171</ele>
        <time>2025-05-13T09:22:55Z</time>
      </trkpt>
      <trkpt lat="48.64838" lon="1.89593">
        <ele>171.1</ele>
        <time>2025-05-13T09:23:02Z</time>
      </trkpt>
      <trkpt lat="48.64843" lon="1.89582">
        <ele>171</ele>
        <time>2025-05-13T09:23:08Z</time>
      </trkpt>
      <trkpt lat="48.64847" lon="1.89569">
        <ele>171</ele>
        <time>2025-05-13T09:23:14Z</time>
      </trkpt>
      <trkpt lat="48.64852" lon="1.89555">
        <ele>171</ele>
        <time>2025-05-13T09:23:21Z</time>
      </trkpt>
      <trkpt lat="48.64856" lon="1.89539">
        <ele>170.9</ele>
        <time>2025-05-13T09:23:29Z</time>
      </trkpt>
      <trkpt lat="48.64862" lon="1.89528">
        <ele>171</ele>
        <time>2025-05-13T09:23:35Z</time>
      </trkpt>
      <trkpt lat="48.64868" lon="1.89518">
        <ele>170.7</ele>
        <time>2025-05-13T09:23:42Z</time>
      </trkpt>
      <trkpt lat="48.64875" lon="1.89508">
        <ele>170.7</ele>
        <time>2025-05-13T09:23:51Z</time>
      </trkpt>
      <trkpt lat="48.64882" lon="1.89497">
        <ele>170.7</ele>
        <time>2025-05-13T09:24:00Z</time>
      </trkpt>
      <trkpt lat="48.64887" lon="1.89484">
        <ele>170.4</ele>
        <time>2025-05-13T09:24:08Z</time>
      </trkpt>
      <trkpt lat="48.64888" lon="1.8947">
        <ele>169.9</ele>
        <time>2025-05-13T09:25:27Z</time>
      </trkpt>
      <trkpt lat="48.64896" lon="1.89463">
        <ele>169.9</ele>
        <time>2025-05-13T09:25:41Z</time>
      </trkpt>
      <trkpt lat="48.64904" lon="1.89455">
        <ele>169.9</ele>
        <time>2025-05-13T09:25:56Z</time>
      </trkpt>
      <trkpt lat="48.6491" lon="1.89442">
        <ele>169.7</ele>
        <time>2025-05-13T09:26:04Z</time>
      </trkpt>
      <trkpt lat="48.64916" lon="1.8943">
        <ele>169.5</ele>
        <time>2025-05-13T09:26:11Z</time>
      </trkpt>
      <trkpt lat="48.64921" lon="1.89418">
        <ele>169.2</ele>
        <time>2025-05-13T09:26:17Z</time>
      </trkpt>
      <trkpt lat="48.64927" lon="1.89406">
        <ele>169.2</ele>
        <time>2025-05-13T09:26:24Z</time>
      </trkpt>
      <trkpt lat="48.64933" lon="1.89395">
        <ele>169.1</ele>
        <time>2025-05-13T09:26:31Z</time>
      </trkpt>
      <trkpt lat="48.64938" lon="1.89382">
        <ele>169</ele>
        <time>2025-05-13T09:26:37Z</time>
      </trkpt>
      <trkpt lat="48.64944" lon="1.8937">
        <ele>169</ele>
        <time>2025-05-13T09:26:44Z</time>
      </trkpt>
      <trkpt lat="48.64951" lon="1.89359">
        <ele>169.2</ele>
        <time>2025-05-13T09:26:51Z</time>
      </trkpt>
      <trkpt lat="48.64955" lon="1.89347">
        <ele>169.2</ele>
        <time>2025-05-13T09:26:57Z</time>
      </trkpt>
      <trkpt lat="48.6496" lon="1.89334">
        <ele>169</ele>
        <time>2025-05-13T09:27:03Z</time>
      </trkpt>
      <trkpt lat="48.64965" lon="1.89321">
        <ele>169</ele>
        <time>2025-05-13T09:27:10Z</time>
      </trkpt>
      <trkpt lat="48.64971" lon="1.89308">
        <ele>169</ele>
        <time>2025-05-13T09:27:17Z</time>
      </trkpt>
      <trkpt lat="48.64976" lon="1.89297">
        <ele>169.1</ele>
        <time>2025-05-13T09:27:23Z</time>
      </trkpt>
      <trkpt lat="48.64982" lon="1.89285">
        <ele>169.4</ele>
        <time>2025-05-13T09:27:30Z</time>
      </trkpt>
      <trkpt lat="48.64987" lon="1.89273">
        <ele>169.4</ele>
        <time>2025-05-13T09:27:36Z</time>
      </trkpt>
      <trkpt lat="48.64993" lon="1.89261">
        <ele>169.3</ele>
        <time>2025-05-13T09:27:43Z</time>
      </trkpt>
      <trkpt lat="48.64999" lon="1.89251">
        <ele>169</ele>
        <time>2025-05-13T09:27:50Z</time>
      </trkpt>
      <trkpt lat="48.65004" lon="1.89238">
        <ele>169.1</ele>
        <time>2025-05-13T09:27:57Z</time>
      </trkpt>
      <trkpt lat="48.6501" lon="1.89224">
        <ele>169</ele>
        <time>2025-05-13T09:28:03Z</time>
      </trkpt>
      <trkpt lat="48.65015" lon="1.89212">
        <ele>169</ele>
        <time>2025-05-13T09:28:09Z</time>
      </trkpt>
      <trkpt lat="48.65021" lon="1.89201">
        <ele>169</ele>
        <time>2025-05-13T09:28:16Z</time>
      </trkpt>
      <trkpt lat="48.65027" lon="1.89188">
        <ele>168.8</ele>
        <time>2025-05-13T09:28:23Z</time>
      </trkpt>
      <trkpt lat="48.65034" lon="1.89177">
        <ele>168.7</ele>
        <time>2025-05-13T09:28:30Z</time>
      </trkpt>
      <trkpt lat="48.65039" lon="1.89166">
        <ele>168.8</ele>
        <time>2025-05-13T09:28:36Z</time>
      </trkpt>
      <trkpt lat="48.65044" lon="1.89154">
        <ele>168.9</ele>
        <time>2025-05-13T09:28:43Z</time>
      </trkpt>
      <trkpt lat="48.6505" lon="1.8914">
        <ele>168.8</ele>
        <time>2025-05-13T09:28:50Z</time>
      </trkpt>
      <trkpt lat="48.65054" lon="1.89127">
        <ele>168.6</ele>
        <time>2025-05-13T09:28:56Z</time>
      </trkpt>
      <trkpt lat="48.65061" lon="1.89118">
        <ele>168.3</ele>
        <time>2025-05-13T09:29:02Z</time>
      </trkpt>
      <trkpt lat="48.65067" lon="1.89106">
        <ele>167.9</ele>
        <time>2025-05-13T09:29:09Z</time>
      </trkpt>
      <trkpt lat="48.65073" lon="1.89096">
        <ele>167.6</ele>
        <time>2025-05-13T09:29:17Z</time>
      </trkpt>
      <trkpt lat="48.65079" lon="1.89084">
        <ele>167.2</ele>
        <time>2025-05-13T09:29:25Z</time>
      </trkpt>
      <trkpt lat="48.65086" lon="1.89072">
        <ele>167.4</ele>
        <time>2025-05-13T09:29:33Z</time>
      </trkpt>
      <trkpt lat="48.65092" lon="1.89061">
        <ele>167.8</ele>
        <time>2025-05-13T09:29:41Z</time>
      </trkpt>
      <trkpt lat="48.65098" lon="1.8905">
        <ele>168.3</ele>
        <time>2025-05-13T09:29:48Z</time>
      </trkpt>
      <trkpt lat="48.65104" lon="1.89038">
        <ele>168.8</ele>
        <time>2025-05-13T09:29:56Z</time>
      </trkpt>
      <trkpt lat="48.6511" lon="1.89025">
        <ele>169.1</ele>
        <time>2025-05-13T09:30:04Z</time>
      </trkpt>
      <trkpt lat="48.65114" lon="1.89013">
        <ele>169.2</ele>
        <time>2025-05-13T09:30:10Z</time>
      </trkpt>
      <trkpt lat="48.65119" lon="1.89">
        <ele>169.1</ele>
        <time>2025-05-13T09:30:17Z</time>
      </trkpt>
      <trkpt lat="48.65126" lon="1.8899">
        <ele>168.4</ele>
        <time>2025-05-13T09:30:25Z</time>
      </trkpt>
      <trkpt lat="48.65133" lon="1.88979">
        <ele>167.7</ele>
        <time>2025-05-13T09:30:32Z</time>
      </trkpt>
      <trkpt lat="48.65137" lon="1.88967">
        <ele>167.2</ele>
        <time>2025-05-13T09:30:39Z</time>
      </trkpt>
      <trkpt lat="48.65142" lon="1.88956">
        <ele>166.9</ele>
        <time>2025-05-13T09:30:46Z</time>
      </trkpt>
      <trkpt lat="48.65147" lon="1.88943">
        <ele>166.7</ele>
        <time>2025-05-13T09:30:53Z</time>
      </trkpt>
      <trkpt lat="48.65152" lon="1.8893">
        <ele>166.3</ele>
        <time>2025-05-13T09:31:00Z</time>
      </trkpt>
      <trkpt lat="48.65157" lon="1.88918">
        <ele>165.7</ele>
        <time>2025-05-13T09:31:07Z</time>
      </trkpt>
      <trkpt lat="48.65162" lon="1.88907">
        <ele>165.4</ele>
        <time>2025-05-13T09:31:14Z</time>
      </trkpt>
      <trkpt lat="48.65169" lon="1.88896">
        <ele>165.2</ele>
        <time>2025-05-13T09:31:22Z</time>
      </trkpt>
      <trkpt lat="48.65175" lon="1.88884">
        <ele>165.9</ele>
        <time>2025-05-13T09:31:31Z</time>
      </trkpt>
      <trkpt lat="48.65181" lon="1.88874">
        <ele>166.6</ele>
        <time>2025-05-13T09:31:39Z</time>
      </trkpt>
      <trkpt lat="48.65186" lon="1.88861">
        <ele>167.1</ele>
        <time>2025-05-13T09:31:46Z</time>
      </trkpt>
      <trkpt lat="48.65191" lon="1.88847">
        <ele>167.2</ele>
        <time>2025-05-13T09:31:54Z</time>
      </trkpt>
      <trkpt lat="48.65195" lon="1.88835">
        <ele>167.2</ele>
        <time>2025-05-13T09:32:02Z</time>
      </trkpt>
      <trkpt lat="48.65201" lon="1.88822">
        <ele>167.4</ele>
        <time>2025-05-13T09:32:10Z</time>
      </trkpt>
      <trkpt lat="48.65208" lon="1.88811">
        <ele>168</ele>
        <time>2025-05-13T09:32:18Z</time>
      </trkpt>
      <trkpt lat="48.65213" lon="1.88797">
        <ele>168.4</ele>
        <time>2025-05-13T09:32:26Z</time>
      </trkpt>
      <trkpt lat="48.65219" lon="1.88785">
        <ele>168.8</ele>
        <time>2025-05-13T09:32:34Z</time>
      </trkpt>
      <trkpt lat="48.65223" lon="1.88772">
        <ele>169</ele>
        <time>2025-05-13T09:32:40Z</time>
      </trkpt>
      <trkpt lat="48.65225" lon="1.88758">
        <ele>169.1</ele>
        <time>2025-05-13T09:32:46Z</time>
      </trkpt>
      <trkpt lat="48.6523" lon="1.88747">
        <ele>169.2</ele>
        <time>2025-05-13T09:32:54Z</time>
      </trkpt>
      <trkpt lat="48.65236" lon="1.88735">
        <ele>169</ele>
        <time>2025-05-13T09:33:02Z</time>
      </trkpt>
      <trkpt lat="48.65242" lon="1.88724">
        <ele>168.8</ele>
        <time>2025-05-13T09:33:11Z</time>
      </trkpt>
      <trkpt lat="48.65249" lon="1.88713">
        <ele>169</ele>
        <time>2025-05-13T09:33:27Z</time>
      </trkpt>
      <trkpt lat="48.65255" lon="1.88702">
        <ele>169</ele>
        <time>2025-05-13T09:33:36Z</time>
      </trkpt>
      <trkpt lat="48.65262" lon="1.88691">
        <ele>169</ele>
        <time>2025-05-13T09:33:46Z</time>
      </trkpt>
      <trkpt lat="48.65267" lon="1.88678">
        <ele>169</ele>
        <time>2025-05-13T09:33:55Z</time>
      </trkpt>
      <trkpt lat="48.65273" lon="1.88667">
        <ele>169</ele>
        <time>2025-05-13T09:34:02Z</time>
      </trkpt>
      <trkpt lat="48.65278" lon="1.88655">
        <ele>169</ele>
        <time>2025-05-13T09:34:10Z</time>
      </trkpt>
      <trkpt lat="48.6527" lon="1.88662">
        <ele>168.9</ele>
        <time>2025-05-13T09:34:30Z</time>
      </trkpt>
      <trkpt lat="48.65266" lon="1.88674">
        <ele>169</ele>
        <time>2025-05-13T09:34:37Z</time>
      </trkpt>
      <trkpt lat="48.65258" lon="1.88683">
        <ele>169</ele>
        <time>2025-05-13T09:34:44Z</time>
      </trkpt>
      <trkpt lat="48.65253" lon="1.88696">
        <ele>169</ele>
        <time>2025-05-13T09:34:54Z</time>
      </trkpt>
      <trkpt lat="48.65252" lon="1.8871">
        <ele>169</ele>
        <time>2025-05-13T09:35:03Z</time>
      </trkpt>
      <trkpt lat="48.65257" lon="1.88724">
        <ele>169.3</ele>
        <time>2025-05-13T09:35:11Z</time>
      </trkpt>
      <trkpt lat="48.65264" lon="1.88733">
        <ele>169.7</ele>
        <time>2025-05-13T09:35:19Z</time>
      </trkpt>
      <trkpt lat="48.65271" lon="1.8874">
        <ele>169.9</ele>
        <time>2025-05-13T09:35:26Z</time>
      </trkpt>
      <trkpt lat="48.65279" lon="1.8875">
        <ele>170</ele>
        <time>2025-05-13T09:35:34Z</time>
      </trkpt>
      <trkpt lat="48.65287" lon="1.88758">
        <ele>170</ele>
        <time>2025-05-13T09:35:42Z</time>
      </trkpt>
      <trkpt lat="48.65295" lon="1.88766">
        <ele>170</ele>
        <time>2025-05-13T09:35:49Z</time>
      </trkpt>
      <trkpt lat="48.65303" lon="1.88774">
        <ele>170</ele>
        <time>2025-05-13T09:35:56Z</time>
      </trkpt>
      <trkpt lat="48.6531" lon="1.88783">
        <ele>170</ele>
        <time>2025-05-13T09:36:03Z</time>
      </trkpt>
      <trkpt lat="48.65318" lon="1.88791">
        <ele>170</ele>
        <time>2025-05-13T09:36:10Z</time>
      </trkpt>
      <trkpt lat="48.65325" lon="1.888">
        <ele>170</ele>
        <time>2025-05-13T09:36:17Z</time>
      </trkpt>
      <trkpt lat="48.65331" lon="1.88812">
        <ele>170</ele>
        <time>2025-05-13T09:36:25Z</time>
      </trkpt>
      <trkpt lat="48.6534" lon="1.88821">
        <ele>170</ele>
        <time>2025-05-13T09:36:33Z</time>
      </trkpt>
      <trkpt lat="48.65346" lon="1.88831">
        <ele>170</ele>
        <time>2025-05-13T09:36:40Z</time>
      </trkpt>
      <trkpt lat="48.65354" lon="1.88841">
        <ele>170</ele>
        <time>2025-05-13T09:36:47Z</time>
      </trkpt>
      <trkpt lat="48.65361" lon="1.8885">
        <ele>170</ele>
        <time>2025-05-13T09:36:54Z</time>
      </trkpt>
      <trkpt lat="48.6537" lon="1.88857">
        <ele>170</ele>
        <time>2025-05-13T09:37:09Z</time>
      </trkpt>
      <trkpt lat="48.65379" lon="1.88863">
        <ele>170</ele>
        <time>2025-05-13T09:37:21Z</time>
      </trkpt>
      <trkpt lat="48.65387" lon="1.88854">
        <ele>170</ele>
        <time>2025-05-13T09:37:28Z</time>
      </trkpt>
      <trkpt lat="48.65392" lon="1.88842">
        <ele>170</ele>
        <time>2025-05-13T09:37:35Z</time>
      </trkpt>
      <trkpt lat="48.65394" lon="1.88827">
        <ele>169.8</ele>
        <time>2025-05-13T09:37:42Z</time>
      </trkpt>
      <trkpt lat="48.65398" lon="1.88814">
        <ele>169.5</ele>
        <time>2025-05-13T09:37:49Z</time>
      </trkpt>
      <trkpt lat="48.654" lon="1.88801">
        <ele>169.4</ele>
        <time>2025-05-13T09:37:56Z</time>
      </trkpt>
      <trkpt lat="48.65403" lon="1.88786">
        <ele>169.5</ele>
        <time>2025-05-13T09:38:03Z</time>
      </trkpt>
      <trkpt lat="48.65405" lon="1.88773">
        <ele>169.3</ele>
        <time>2025-05-13T09:38:10Z</time>
      </trkpt>
      <trkpt lat="48.65408" lon="1.88758">
        <ele>169.1</ele>
        <time>2025-05-13T09:38:18Z</time>
      </trkpt>
      <trkpt lat="48.65409" lon="1.88744">
        <ele>169</ele>
        <time>2025-05-13T09:38:25Z</time>
      </trkpt>
      <trkpt lat="48.65411" lon="1.88731">
        <ele>169</ele>
        <time>2025-05-13T09:38:32Z</time>
      </trkpt>
      <trkpt lat="48.65413" lon="1.88717">
        <ele>168.8</ele>
        <time>2025-05-13T09:38:39Z</time>
      </trkpt>
      <trkpt lat="48.65415" lon="1.88702">
        <ele>168.3</ele>
        <time>2025-05-13T09:38:47Z</time>
      </trkpt>
      <trkpt lat="48.65418" lon="1.88689">
        <ele>168.1</ele>
        <time>2025-05-13T09:38:54Z</time>
      </trkpt>
      <trkpt lat="48.6542" lon="1.88675">
        <ele>168.1</ele>
        <time>2025-05-13T09:39:01Z</time>
      </trkpt>
      <trkpt lat="48.65421" lon="1.8866">
        <ele>168</ele>
        <time>2025-05-13T09:39:08Z</time>
      </trkpt>
      <trkpt lat="48.65422" lon="1.88645">
        <ele>167.7</ele>
        <time>2025-05-13T09:39:16Z</time>
      </trkpt>
      <trkpt lat="48.65424" lon="1.88631">
        <ele>167.8</ele>
        <time>2025-05-13T09:39:23Z</time>
      </trkpt>
      <trkpt lat="48.65427" lon="1.88618">
        <ele>168.1</ele>
        <time>2025-05-13T09:39:30Z</time>
      </trkpt>
      <trkpt lat="48.65429" lon="1.88604">
        <ele>168.3</ele>
        <time>2025-05-13T09:39:38Z</time>
      </trkpt>
      <trkpt lat="48.65431" lon="1.8859">
        <ele>168.5</ele>
        <time>2025-05-13T09:39:45Z</time>
      </trkpt>
      <trkpt lat="48.65434" lon="1.88575">
        <ele>168.9</ele>
        <time>2025-05-13T09:39:53Z</time>
      </trkpt>
      <trkpt lat="48.65436" lon="1.8856">
        <ele>169.1</ele>
        <time>2025-05-13T09:40:01Z</time>
      </trkpt>
      <trkpt lat="48.65439" lon="1.88547">
        <ele>169.2</ele>
        <time>2025-05-13T09:40:08Z</time>
      </trkpt>
      <trkpt lat="48.65446" lon="1.88538">
        <ele>169.4</ele>
        <time>2025-05-13T09:40:16Z</time>
      </trkpt>
      <trkpt lat="48.65455" lon="1.88532">
        <ele>169.2</ele>
        <time>2025-05-13T09:40:23Z</time>
      </trkpt>
      <trkpt lat="48.65464" lon="1.88526">
        <ele>169</ele>
        <time>2025-05-13T09:40:31Z</time>
      </trkpt>
      <trkpt lat="48.65472" lon="1.8852">
        <ele>169</ele>
        <time>2025-05-13T09:40:38Z</time>
      </trkpt>
      <trkpt lat="48.65481" lon="1.88517">
        <ele>169.2</ele>
        <time>2025-05-13T09:40:45Z</time>
      </trkpt>
      <trkpt lat="48.65491" lon="1.88514">
        <ele>169.3</ele>
        <time>2025-05-13T09:40:55Z</time>
      </trkpt>
    </trkseg>
  </trk>
</gpx>